﻿<?xml version="1.0" encoding="UTF-8" standalone="no" ?>
<gpx xmlns="http://www.topografix.com/GPX/1/1" creator="CompeGPS" version="1.1" xmlns:xsi="http://www.w3.org/2001/XMLSchema-instance" xsi:schemaLocation="http://www.topografix.com/GPX/1/1 http://www.topografix.com/GPX/1/1/gpx.xsd http://www.garmin.com/xmlschemas/GpxExtensions/v3 http://www.garmin.com/xmlschemas/GpxExtensionsv3.xsd http://www.garmin.com/xmlschemas/TrackPointExtension/v1 http://www.garmin.com/xmlschemas/TrackPointExtensionv1.xsd" xmlns:gpxtpx="http://www.garmin.com/xmlschemas/TrackPointExtension/v1">
  <metadata>
    <link href="http://www.compegps.com">
      <text>CompeGPS TEAM, SL</text>
    </link>
    <time>2013-03-27T14:42:05Z</time>
    <bounds maxlat="42.845834" maxlon="0.518219" minlat="42.812570" minlon="0.486855"/>
  </metadata>
<wpt lat="42.812570" lon="0.497682">
<ele>1238</ele>
<name>Poubeau</name>
</wpt>
<wpt lat="42.820704" lon="0.494316">
<ele>1601</ele>
<name>Sarrat de Gembregasse</name>
</wpt>
<wpt lat="42.832240" lon="0.498470">
<ele>1881</ele>
<name>Sarrat de Sacroues</name>
</wpt>
<wpt lat="42.845813" lon="0.486855">
<ele>1970</ele>
<name>Cap de la Lit</name>
</wpt>
<wpt lat="42.835952" lon="0.504187">
<ele>1912</ele>
<name>Honteyde</name>
</wpt>
<wpt lat="42.831948" lon="0.518166">
<ele>1841</ele>
<name>Coume de Herrere</name>
</wpt>
<wpt lat="42.821847" lon="0.517465">
<ele>1621</ele>
<name>Homme de Pierre</name>
</wpt>
<wpt lat="42.818430" lon="0.508592">
<ele>1280</ele>
<name>Labach</name>
</wpt>
  <trk>
    <name>Cap de la Lit par Poubeau</name>
    <trkseg>
      <trkpt lat="42.812570" lon="0.497682">
        <ele>1280.6</ele>
        <time>2013-03-23T08:00:37Z</time>
        <name>Poubeau</name>
      </trkpt>
      <trkpt lat="42.812604" lon="0.497750">
        <ele>1274.9</ele>
        <time>2013-03-23T08:11:42Z</time>
      </trkpt>
      <trkpt lat="42.812612" lon="0.497771">
        <ele>1275.2</ele>
        <time>2013-03-23T08:14:04Z</time>
      </trkpt>
      <trkpt lat="42.812618" lon="0.497786">
        <ele>1275.3</ele>
        <time>2013-03-23T08:19:41Z</time>
      </trkpt>
      <trkpt lat="42.812650" lon="0.497887">
        <ele>1245.0</ele>
        <time>2013-03-23T08:19:55Z</time>
      </trkpt>
      <trkpt lat="42.812691" lon="0.497996">
        <ele>1245.0</ele>
        <time>2013-03-23T08:20:06Z</time>
      </trkpt>
      <trkpt lat="42.812781" lon="0.498023">
        <ele>1247.0</ele>
        <time>2013-03-23T08:20:23Z</time>
      </trkpt>
      <trkpt lat="42.812923" lon="0.498040">
        <ele>1250.3</ele>
        <time>2013-03-23T08:20:44Z</time>
      </trkpt>
      <trkpt lat="42.812995" lon="0.497958">
        <ele>1253.2</ele>
        <time>2013-03-23T08:21:03Z</time>
      </trkpt>
      <trkpt lat="42.812974" lon="0.497817">
        <ele>1254.2</ele>
        <time>2013-03-23T08:21:13Z</time>
      </trkpt>
      <trkpt lat="42.813078" lon="0.497750">
        <ele>1258.0</ele>
        <time>2013-03-23T08:21:29Z</time>
      </trkpt>
      <trkpt lat="42.813172" lon="0.497626">
        <ele>1261.4</ele>
        <time>2013-03-23T08:21:46Z</time>
      </trkpt>
      <trkpt lat="42.813147" lon="0.497504">
        <ele>1262.8</ele>
        <time>2013-03-23T08:21:59Z</time>
      </trkpt>
      <trkpt lat="42.813199" lon="0.497489">
        <ele>1264.8</ele>
        <time>2013-03-23T08:22:12Z</time>
      </trkpt>
      <trkpt lat="42.813295" lon="0.497450">
        <ele>1266.7</ele>
        <time>2013-03-23T08:22:27Z</time>
      </trkpt>
      <trkpt lat="42.813364" lon="0.497355">
        <ele>1269.6</ele>
        <time>2013-03-23T08:22:41Z</time>
      </trkpt>
      <trkpt lat="42.813401" lon="0.497329">
        <ele>1273.4</ele>
        <time>2013-03-23T08:23:51Z</time>
      </trkpt>
      <trkpt lat="42.813472" lon="0.497401">
        <ele>1272.0</ele>
        <time>2013-03-23T08:24:03Z</time>
      </trkpt>
      <trkpt lat="42.813545" lon="0.497522">
        <ele>1274.4</ele>
        <time>2013-03-23T08:24:22Z</time>
      </trkpt>
      <trkpt lat="42.813635" lon="0.497539">
        <ele>1275.8</ele>
        <time>2013-03-23T08:24:38Z</time>
      </trkpt>
      <trkpt lat="42.813732" lon="0.497587">
        <ele>1278.7</ele>
        <time>2013-03-23T08:24:50Z</time>
      </trkpt>
      <trkpt lat="42.813808" lon="0.497688">
        <ele>1280.6</ele>
        <time>2013-03-23T08:25:01Z</time>
      </trkpt>
      <trkpt lat="42.813893" lon="0.497752">
        <ele>1281.1</ele>
        <time>2013-03-23T08:25:13Z</time>
      </trkpt>
      <trkpt lat="42.813997" lon="0.497828">
        <ele>1284.0</ele>
        <time>2013-03-23T08:25:26Z</time>
      </trkpt>
      <trkpt lat="42.814107" lon="0.497904">
        <ele>1285.4</ele>
        <time>2013-03-23T08:25:39Z</time>
      </trkpt>
      <trkpt lat="42.814225" lon="0.497990">
        <ele>1287.8</ele>
        <time>2013-03-23T08:25:54Z</time>
      </trkpt>
      <trkpt lat="42.814320" lon="0.498038">
        <ele>1289.8</ele>
        <time>2013-03-23T08:26:09Z</time>
      </trkpt>
      <trkpt lat="42.814425" lon="0.498072">
        <ele>1292.6</ele>
        <time>2013-03-23T08:27:14Z</time>
      </trkpt>
      <trkpt lat="42.814537" lon="0.498073">
        <ele>1293.6</ele>
        <time>2013-03-23T08:27:30Z</time>
      </trkpt>
      <trkpt lat="42.814563" lon="0.498026">
        <ele>1297.9</ele>
        <time>2013-03-23T08:27:45Z</time>
      </trkpt>
      <trkpt lat="42.814482" lon="0.497937">
        <ele>1298.9</ele>
        <time>2013-03-23T08:27:57Z</time>
      </trkpt>
      <trkpt lat="42.814394" lon="0.497849">
        <ele>1301.8</ele>
        <time>2013-03-23T08:28:10Z</time>
      </trkpt>
      <trkpt lat="42.814340" lon="0.497736">
        <ele>1303.7</ele>
        <time>2013-03-23T08:28:22Z</time>
      </trkpt>
      <trkpt lat="42.814293" lon="0.497622">
        <ele>1306.1</ele>
        <time>2013-03-23T08:28:34Z</time>
      </trkpt>
      <trkpt lat="42.814239" lon="0.497502">
        <ele>1307.1</ele>
        <time>2013-03-23T08:28:45Z</time>
      </trkpt>
      <trkpt lat="42.814211" lon="0.497395">
        <ele>1309.9</ele>
        <time>2013-03-23T08:28:56Z</time>
      </trkpt>
      <trkpt lat="42.814167" lon="0.497290">
        <ele>1311.4</ele>
        <time>2013-03-23T08:29:08Z</time>
      </trkpt>
      <trkpt lat="42.814127" lon="0.497181">
        <ele>1314.3</ele>
        <time>2013-03-23T08:29:20Z</time>
      </trkpt>
      <trkpt lat="42.814086" lon="0.497060">
        <ele>1314.7</ele>
        <time>2013-03-23T08:29:31Z</time>
      </trkpt>
      <trkpt lat="42.814072" lon="0.496931">
        <ele>1316.2</ele>
        <time>2013-03-23T08:29:43Z</time>
      </trkpt>
      <trkpt lat="42.814051" lon="0.496809">
        <ele>1318.1</ele>
        <time>2013-03-23T08:29:54Z</time>
      </trkpt>
      <trkpt lat="42.814024" lon="0.496690">
        <ele>1320.0</ele>
        <time>2013-03-23T08:30:06Z</time>
      </trkpt>
      <trkpt lat="42.814008" lon="0.496553">
        <ele>1322.4</ele>
        <time>2013-03-23T08:30:19Z</time>
      </trkpt>
      <trkpt lat="42.813955" lon="0.496418">
        <ele>1324.8</ele>
        <time>2013-03-23T08:30:34Z</time>
      </trkpt>
      <trkpt lat="42.813911" lon="0.496301">
        <ele>1326.8</ele>
        <time>2013-03-23T08:30:48Z</time>
      </trkpt>
      <trkpt lat="42.813882" lon="0.496170">
        <ele>1328.7</ele>
        <time>2013-03-23T08:31:02Z</time>
      </trkpt>
      <trkpt lat="42.813856" lon="0.496041">
        <ele>1331.6</ele>
        <time>2013-03-23T08:31:15Z</time>
      </trkpt>
      <trkpt lat="42.813823" lon="0.495924">
        <ele>1332.0</ele>
        <time>2013-03-23T08:31:28Z</time>
      </trkpt>
      <trkpt lat="42.813785" lon="0.495805">
        <ele>1334.0</ele>
        <time>2013-03-23T08:31:39Z</time>
      </trkpt>
      <trkpt lat="42.813765" lon="0.495679">
        <ele>1336.4</ele>
        <time>2013-03-23T08:31:51Z</time>
      </trkpt>
      <trkpt lat="42.813740" lon="0.495562">
        <ele>1338.3</ele>
        <time>2013-03-23T08:32:04Z</time>
      </trkpt>
      <trkpt lat="42.813730" lon="0.495429">
        <ele>1339.7</ele>
        <time>2013-03-23T08:32:15Z</time>
      </trkpt>
      <trkpt lat="42.813735" lon="0.495294">
        <ele>1341.2</ele>
        <time>2013-03-23T08:32:26Z</time>
      </trkpt>
      <trkpt lat="42.813744" lon="0.495169">
        <ele>1342.6</ele>
        <time>2013-03-23T08:32:41Z</time>
      </trkpt>
      <trkpt lat="42.813740" lon="0.495042">
        <ele>1344.1</ele>
        <time>2013-03-23T08:32:52Z</time>
      </trkpt>
      <trkpt lat="42.813743" lon="0.494926">
        <ele>1345.5</ele>
        <time>2013-03-23T08:36:09Z</time>
      </trkpt>
      <trkpt lat="42.813789" lon="0.494793">
        <ele>1347.9</ele>
        <time>2013-03-23T08:36:23Z</time>
      </trkpt>
      <trkpt lat="42.813845" lon="0.494693">
        <ele>1350.8</ele>
        <time>2013-03-23T08:36:38Z</time>
      </trkpt>
      <trkpt lat="42.813913" lon="0.494581">
        <ele>1352.7</ele>
        <time>2013-03-23T08:36:54Z</time>
      </trkpt>
      <trkpt lat="42.813978" lon="0.494468">
        <ele>1353.7</ele>
        <time>2013-03-23T08:37:05Z</time>
      </trkpt>
      <trkpt lat="42.814045" lon="0.494372">
        <ele>1354.6</ele>
        <time>2013-03-23T08:37:16Z</time>
      </trkpt>
      <trkpt lat="42.814115" lon="0.494270">
        <ele>1356.1</ele>
        <time>2013-03-23T08:37:26Z</time>
      </trkpt>
      <trkpt lat="42.814184" lon="0.494178">
        <ele>1356.6</ele>
        <time>2013-03-23T08:37:39Z</time>
      </trkpt>
      <trkpt lat="42.814274" lon="0.494105">
        <ele>1359.4</ele>
        <time>2013-03-23T08:37:53Z</time>
      </trkpt>
      <trkpt lat="42.814336" lon="0.494018">
        <ele>1360.9</ele>
        <time>2013-03-23T08:38:09Z</time>
      </trkpt>
      <trkpt lat="42.814413" lon="0.493958">
        <ele>1361.8</ele>
        <time>2013-03-23T08:38:23Z</time>
      </trkpt>
      <trkpt lat="42.814498" lon="0.493884">
        <ele>1363.8</ele>
        <time>2013-03-23T08:38:36Z</time>
      </trkpt>
      <trkpt lat="42.814557" lon="0.493928">
        <ele>1367.1</ele>
        <time>2013-03-23T08:38:56Z</time>
      </trkpt>
      <trkpt lat="42.814573" lon="0.494037">
        <ele>1371.5</ele>
        <time>2013-03-23T08:39:18Z</time>
      </trkpt>
      <trkpt lat="42.814647" lon="0.494003">
        <ele>1374.3</ele>
        <time>2013-03-23T08:39:35Z</time>
      </trkpt>
      <trkpt lat="42.814737" lon="0.493959">
        <ele>1376.8</ele>
        <time>2013-03-23T08:39:52Z</time>
      </trkpt>
      <trkpt lat="42.814819" lon="0.493954">
        <ele>1379.6</ele>
        <time>2013-03-23T08:40:08Z</time>
      </trkpt>
      <trkpt lat="42.814897" lon="0.493955">
        <ele>1383.0</ele>
        <time>2013-03-23T08:40:25Z</time>
      </trkpt>
      <trkpt lat="42.814927" lon="0.494030">
        <ele>1386.4</ele>
        <time>2013-03-23T08:40:42Z</time>
      </trkpt>
      <trkpt lat="42.814904" lon="0.494138">
        <ele>1388.8</ele>
        <time>2013-03-23T08:40:58Z</time>
      </trkpt>
      <trkpt lat="42.814855" lon="0.494252">
        <ele>1389.2</ele>
        <time>2013-03-23T08:41:10Z</time>
      </trkpt>
      <trkpt lat="42.814861" lon="0.494366">
        <ele>1391.7</ele>
        <time>2013-03-23T08:41:26Z</time>
      </trkpt>
      <trkpt lat="42.814934" lon="0.494429">
        <ele>1394.5</ele>
        <time>2013-03-23T08:41:43Z</time>
      </trkpt>
      <trkpt lat="42.814991" lon="0.494535">
        <ele>1397.4</ele>
        <time>2013-03-23T08:41:59Z</time>
      </trkpt>
      <trkpt lat="42.815045" lon="0.494602">
        <ele>1399.3</ele>
        <time>2013-03-23T08:42:14Z</time>
      </trkpt>
      <trkpt lat="42.815129" lon="0.494629">
        <ele>1402.2</ele>
        <time>2013-03-23T08:42:30Z</time>
      </trkpt>
      <trkpt lat="42.815191" lon="0.494715">
        <ele>1405.1</ele>
        <time>2013-03-23T08:42:48Z</time>
      </trkpt>
      <trkpt lat="42.815279" lon="0.494767">
        <ele>1408.5</ele>
        <time>2013-03-23T08:43:11Z</time>
      </trkpt>
      <trkpt lat="42.815354" lon="0.494846">
        <ele>1410.9</ele>
        <time>2013-03-23T08:43:29Z</time>
      </trkpt>
      <trkpt lat="42.815392" lon="0.494961">
        <ele>1413.3</ele>
        <time>2013-03-23T08:43:43Z</time>
      </trkpt>
      <trkpt lat="42.815444" lon="0.495072">
        <ele>1414.7</ele>
        <time>2013-03-23T08:43:56Z</time>
      </trkpt>
      <trkpt lat="42.815514" lon="0.495131">
        <ele>1415.2</ele>
        <time>2013-03-23T08:44:10Z</time>
      </trkpt>
      <trkpt lat="42.815589" lon="0.495148">
        <ele>1415.7</ele>
        <time>2013-03-23T08:45:33Z</time>
      </trkpt>
      <trkpt lat="42.815686" lon="0.495096">
        <ele>1415.7</ele>
        <time>2013-03-23T08:45:47Z</time>
      </trkpt>
      <trkpt lat="42.815786" lon="0.495063">
        <ele>1416.6</ele>
        <time>2013-03-23T08:46:00Z</time>
      </trkpt>
      <trkpt lat="42.815880" lon="0.495051">
        <ele>1416.6</ele>
        <time>2013-03-23T08:46:15Z</time>
      </trkpt>
      <trkpt lat="42.815953" lon="0.495084">
        <ele>1419.5</ele>
        <time>2013-03-23T08:47:05Z</time>
      </trkpt>
      <trkpt lat="42.816036" lon="0.495090">
        <ele>1423.8</ele>
        <time>2013-03-23T08:47:24Z</time>
      </trkpt>
      <trkpt lat="42.816115" lon="0.495134">
        <ele>1428.7</ele>
        <time>2013-03-23T08:47:46Z</time>
      </trkpt>
      <trkpt lat="42.816197" lon="0.495184">
        <ele>1434.4</ele>
        <time>2013-03-23T08:48:12Z</time>
      </trkpt>
      <trkpt lat="42.816278" lon="0.495145">
        <ele>1439.7</ele>
        <time>2013-03-23T08:48:35Z</time>
      </trkpt>
      <trkpt lat="42.816345" lon="0.495064">
        <ele>1443.6</ele>
        <time>2013-03-23T08:48:57Z</time>
      </trkpt>
      <trkpt lat="42.816430" lon="0.494992">
        <ele>1446.0</ele>
        <time>2013-03-23T08:49:13Z</time>
      </trkpt>
      <trkpt lat="42.816495" lon="0.495002">
        <ele>1450.3</ele>
        <time>2013-03-23T08:49:35Z</time>
      </trkpt>
      <trkpt lat="42.816554" lon="0.495076">
        <ele>1452.7</ele>
        <time>2013-03-23T08:50:41Z</time>
      </trkpt>
      <trkpt lat="42.816516" lon="0.495051">
        <ele>1452.2</ele>
        <time>2013-03-23T08:52:41Z</time>
      </trkpt>
      <trkpt lat="42.816546" lon="0.495076">
        <ele>1452.7</ele>
        <time>2013-03-23T08:53:39Z</time>
      </trkpt>
      <trkpt lat="42.816628" lon="0.494979">
        <ele>1455.1</ele>
        <time>2013-03-23T08:54:05Z</time>
      </trkpt>
      <trkpt lat="42.816719" lon="0.495005">
        <ele>1457.0</ele>
        <time>2013-03-23T08:54:14Z</time>
      </trkpt>
      <trkpt lat="42.816813" lon="0.494956">
        <ele>1459.4</ele>
        <time>2013-03-23T08:54:25Z</time>
      </trkpt>
      <trkpt lat="42.816906" lon="0.494938">
        <ele>1461.8</ele>
        <time>2013-03-23T08:54:38Z</time>
      </trkpt>
      <trkpt lat="42.817002" lon="0.494936">
        <ele>1463.7</ele>
        <time>2013-03-23T08:54:53Z</time>
      </trkpt>
      <trkpt lat="42.817099" lon="0.494901">
        <ele>1467.6</ele>
        <time>2013-03-23T08:55:07Z</time>
      </trkpt>
      <trkpt lat="42.817189" lon="0.494850">
        <ele>1469.5</ele>
        <time>2013-03-23T08:55:17Z</time>
      </trkpt>
      <trkpt lat="42.817257" lon="0.494765">
        <ele>1470.0</ele>
        <time>2013-03-23T08:55:26Z</time>
      </trkpt>
      <trkpt lat="42.817330" lon="0.494700">
        <ele>1470.9</ele>
        <time>2013-03-23T08:55:35Z</time>
      </trkpt>
      <trkpt lat="42.817421" lon="0.494658">
        <ele>1471.9</ele>
        <time>2013-03-23T08:55:46Z</time>
      </trkpt>
      <trkpt lat="42.817526" lon="0.494657">
        <ele>1474.8</ele>
        <time>2013-03-23T08:55:59Z</time>
      </trkpt>
      <trkpt lat="42.817618" lon="0.494637">
        <ele>1477.7</ele>
        <time>2013-03-23T08:56:12Z</time>
      </trkpt>
      <trkpt lat="42.817694" lon="0.494691">
        <ele>1482.0</ele>
        <time>2013-03-23T08:56:34Z</time>
      </trkpt>
      <trkpt lat="42.817779" lon="0.494715">
        <ele>1485.8</ele>
        <time>2013-03-23T08:56:51Z</time>
      </trkpt>
      <trkpt lat="42.817867" lon="0.494701">
        <ele>1490.7</ele>
        <time>2013-03-23T08:57:14Z</time>
      </trkpt>
      <trkpt lat="42.817937" lon="0.494655">
        <ele>1494.0</ele>
        <time>2013-03-23T08:57:37Z</time>
      </trkpt>
      <trkpt lat="42.818020" lon="0.494618">
        <ele>1497.4</ele>
        <time>2013-03-23T08:57:55Z</time>
      </trkpt>
      <trkpt lat="42.818102" lon="0.494578">
        <ele>1501.7</ele>
        <time>2013-03-23T08:58:15Z</time>
      </trkpt>
      <trkpt lat="42.818171" lon="0.494570">
        <ele>1506.5</ele>
        <time>2013-03-23T08:58:37Z</time>
      </trkpt>
      <trkpt lat="42.818252" lon="0.494571">
        <ele>1509.9</ele>
        <time>2013-03-23T08:58:55Z</time>
      </trkpt>
      <trkpt lat="42.818321" lon="0.494506">
        <ele>1512.8</ele>
        <time>2013-03-23T08:59:11Z</time>
      </trkpt>
      <trkpt lat="42.818385" lon="0.494530">
        <ele>1516.1</ele>
        <time>2013-03-23T08:59:31Z</time>
      </trkpt>
      <trkpt lat="42.818471" lon="0.494546">
        <ele>1521.4</ele>
        <time>2013-03-23T08:59:51Z</time>
      </trkpt>
      <trkpt lat="42.818561" lon="0.494525">
        <ele>1524.8</ele>
        <time>2013-03-23T09:00:11Z</time>
      </trkpt>
      <trkpt lat="42.818635" lon="0.494490">
        <ele>1530.1</ele>
        <time>2013-03-23T09:00:37Z</time>
      </trkpt>
      <trkpt lat="42.818754" lon="0.494442">
        <ele>1535.4</ele>
        <time>2013-03-23T09:01:13Z</time>
      </trkpt>
      <trkpt lat="42.818844" lon="0.494454">
        <ele>1540.7</ele>
        <time>2013-03-23T09:01:42Z</time>
      </trkpt>
      <trkpt lat="42.818925" lon="0.494419">
        <ele>1544.0</ele>
        <time>2013-03-23T09:02:04Z</time>
      </trkpt>
      <trkpt lat="42.819001" lon="0.494500">
        <ele>1548.8</ele>
        <time>2013-03-23T09:02:30Z</time>
      </trkpt>
      <trkpt lat="42.819067" lon="0.494587">
        <ele>1553.6</ele>
        <time>2013-03-23T09:02:57Z</time>
      </trkpt>
      <trkpt lat="42.819153" lon="0.494543">
        <ele>1558.9</ele>
        <time>2013-03-23T09:03:27Z</time>
      </trkpt>
      <trkpt lat="42.819202" lon="0.494484">
        <ele>1561.3</ele>
        <time>2013-03-23T09:03:52Z</time>
      </trkpt>
      <trkpt lat="42.819270" lon="0.494465">
        <ele>1564.2</ele>
        <time>2013-03-23T09:04:16Z</time>
      </trkpt>
      <trkpt lat="42.819366" lon="0.494441">
        <ele>1570.0</ele>
        <time>2013-03-23T09:04:56Z</time>
      </trkpt>
      <trkpt lat="42.819464" lon="0.494417">
        <ele>1575.3</ele>
        <time>2013-03-23T09:05:30Z</time>
      </trkpt>
      <trkpt lat="42.819540" lon="0.494354">
        <ele>1578.6</ele>
        <time>2013-03-23T09:05:59Z</time>
      </trkpt>
      <trkpt lat="42.819616" lon="0.494294">
        <ele>1581.0</ele>
        <time>2013-03-23T09:06:19Z</time>
      </trkpt>
      <trkpt lat="42.819694" lon="0.494278">
        <ele>1582.9</ele>
        <time>2013-03-23T09:06:35Z</time>
      </trkpt>
      <trkpt lat="42.819760" lon="0.494282">
        <ele>1585.3</ele>
        <time>2013-03-23T09:06:50Z</time>
      </trkpt>
      <trkpt lat="42.819808" lon="0.494360">
        <ele>1588.7</ele>
        <time>2013-03-23T09:07:07Z</time>
      </trkpt>
      <trkpt lat="42.819903" lon="0.494348">
        <ele>1591.1</ele>
        <time>2013-03-23T09:07:23Z</time>
      </trkpt>
      <trkpt lat="42.819908" lon="0.494317">
        <ele>1591.6</ele>
        <time>2013-03-23T09:11:27Z</time>
      </trkpt>
      <trkpt lat="42.819978" lon="0.494364">
        <ele>1593.0</ele>
        <time>2013-03-23T09:13:14Z</time>
      </trkpt>
      <trkpt lat="42.820063" lon="0.494316">
        <ele>1594.0</ele>
        <time>2013-03-23T09:13:28Z</time>
      </trkpt>
      <trkpt lat="42.820149" lon="0.494256">
        <ele>1594.5</ele>
        <time>2013-03-23T09:13:53Z</time>
      </trkpt>
      <trkpt lat="42.820236" lon="0.494333">
        <ele>1596.9</ele>
        <time>2013-03-23T09:14:07Z</time>
      </trkpt>
      <trkpt lat="42.820324" lon="0.494333">
        <ele>1598.8</ele>
        <time>2013-03-23T09:14:22Z</time>
      </trkpt>
      <trkpt lat="42.820418" lon="0.494327">
        <ele>1600.7</ele>
        <time>2013-03-23T09:14:35Z</time>
      </trkpt>
      <trkpt lat="42.820514" lon="0.494296">
        <ele>1602.2</ele>
        <time>2013-03-23T09:14:49Z</time>
      </trkpt>
      <trkpt lat="42.820615" lon="0.494310">
        <ele>1603.1</ele>
        <time>2013-03-23T09:15:01Z</time>
      </trkpt>
      <trkpt lat="42.820704" lon="0.494316">
        <ele>1604.6</ele>
        <time>2013-03-23T09:15:13Z</time>
        <name>Sarrat de Gembregasse</name>
      </trkpt>
      <trkpt lat="42.820790" lon="0.494337">
        <ele>1606.0</ele>
        <time>2013-03-23T09:15:26Z</time>
      </trkpt>
      <trkpt lat="42.820888" lon="0.494320">
        <ele>1607.0</ele>
        <time>2013-03-23T09:15:39Z</time>
      </trkpt>
      <trkpt lat="42.820986" lon="0.494289">
        <ele>1606.0</ele>
        <time>2013-03-23T09:15:49Z</time>
      </trkpt>
      <trkpt lat="42.821066" lon="0.494267">
        <ele>1606.0</ele>
        <time>2013-03-23T09:16:17Z</time>
      </trkpt>
      <trkpt lat="42.821179" lon="0.494290">
        <ele>1604.1</ele>
        <time>2013-03-23T09:16:26Z</time>
      </trkpt>
      <trkpt lat="42.821273" lon="0.494317">
        <ele>1603.1</ele>
        <time>2013-03-23T09:16:35Z</time>
      </trkpt>
      <trkpt lat="42.821363" lon="0.494353">
        <ele>1602.7</ele>
        <time>2013-03-23T09:16:45Z</time>
      </trkpt>
      <trkpt lat="42.821458" lon="0.494382">
        <ele>1601.7</ele>
        <time>2013-03-23T09:16:54Z</time>
      </trkpt>
      <trkpt lat="42.821539" lon="0.494434">
        <ele>1602.2</ele>
        <time>2013-03-23T09:17:05Z</time>
      </trkpt>
      <trkpt lat="42.821616" lon="0.494496">
        <ele>1603.1</ele>
        <time>2013-03-23T09:17:15Z</time>
      </trkpt>
      <trkpt lat="42.821699" lon="0.494557">
        <ele>1605.1</ele>
        <time>2013-03-23T09:17:27Z</time>
      </trkpt>
      <trkpt lat="42.821798" lon="0.494582">
        <ele>1606.0</ele>
        <time>2013-03-23T09:17:39Z</time>
      </trkpt>
      <trkpt lat="42.821884" lon="0.494622">
        <ele>1608.4</ele>
        <time>2013-03-23T09:17:50Z</time>
      </trkpt>
      <trkpt lat="42.821957" lon="0.494670">
        <ele>1609.4</ele>
        <time>2013-03-23T09:18:00Z</time>
      </trkpt>
      <trkpt lat="42.822052" lon="0.494734">
        <ele>1609.9</ele>
        <time>2013-03-23T09:18:11Z</time>
      </trkpt>
      <trkpt lat="42.822132" lon="0.494779">
        <ele>1611.3</ele>
        <time>2013-03-23T09:18:22Z</time>
      </trkpt>
      <trkpt lat="42.822227" lon="0.494829">
        <ele>1611.3</ele>
        <time>2013-03-23T09:18:32Z</time>
      </trkpt>
      <trkpt lat="42.822304" lon="0.494895">
        <ele>1611.3</ele>
        <time>2013-03-23T09:18:42Z</time>
      </trkpt>
      <trkpt lat="42.822375" lon="0.494967">
        <ele>1611.3</ele>
        <time>2013-03-23T09:18:51Z</time>
      </trkpt>
      <trkpt lat="42.822462" lon="0.495023">
        <ele>1611.3</ele>
        <time>2013-03-23T09:19:00Z</time>
      </trkpt>
      <trkpt lat="42.822542" lon="0.495096">
        <ele>1611.8</ele>
        <time>2013-03-23T09:19:11Z</time>
      </trkpt>
      <trkpt lat="42.822633" lon="0.495159">
        <ele>1612.8</ele>
        <time>2013-03-23T09:19:21Z</time>
      </trkpt>
      <trkpt lat="42.822714" lon="0.495229">
        <ele>1614.7</ele>
        <time>2013-03-23T09:19:32Z</time>
      </trkpt>
      <trkpt lat="42.822790" lon="0.495287">
        <ele>1617.1</ele>
        <time>2013-03-23T09:19:46Z</time>
      </trkpt>
      <trkpt lat="42.822872" lon="0.495304">
        <ele>1619.0</ele>
        <time>2013-03-23T09:19:59Z</time>
      </trkpt>
      <trkpt lat="42.822969" lon="0.495355">
        <ele>1621.4</ele>
        <time>2013-03-23T09:20:13Z</time>
      </trkpt>
      <trkpt lat="42.823052" lon="0.495384">
        <ele>1624.3</ele>
        <time>2013-03-23T09:20:28Z</time>
      </trkpt>
      <trkpt lat="42.823144" lon="0.495431">
        <ele>1626.2</ele>
        <time>2013-03-23T09:20:44Z</time>
      </trkpt>
      <trkpt lat="42.823221" lon="0.495458">
        <ele>1630.1</ele>
        <time>2013-03-23T09:21:02Z</time>
      </trkpt>
      <trkpt lat="42.823279" lon="0.495540">
        <ele>1633.4</ele>
        <time>2013-03-23T09:21:18Z</time>
      </trkpt>
      <trkpt lat="42.823361" lon="0.495603">
        <ele>1636.8</ele>
        <time>2013-03-23T09:21:36Z</time>
      </trkpt>
      <trkpt lat="42.823409" lon="0.495687">
        <ele>1640.2</ele>
        <time>2013-03-23T09:21:53Z</time>
      </trkpt>
      <trkpt lat="42.823487" lon="0.495759">
        <ele>1642.6</ele>
        <time>2013-03-23T09:22:09Z</time>
      </trkpt>
      <trkpt lat="42.823569" lon="0.495794">
        <ele>1646.9</ele>
        <time>2013-03-23T09:22:28Z</time>
      </trkpt>
      <trkpt lat="42.823658" lon="0.495855">
        <ele>1649.8</ele>
        <time>2013-03-23T09:22:48Z</time>
      </trkpt>
      <trkpt lat="42.823731" lon="0.495938">
        <ele>1653.6</ele>
        <time>2013-03-23T09:23:10Z</time>
      </trkpt>
      <trkpt lat="42.823808" lon="0.496004">
        <ele>1656.5</ele>
        <time>2013-03-23T09:23:32Z</time>
      </trkpt>
      <trkpt lat="42.823901" lon="0.495987">
        <ele>1658.9</ele>
        <time>2013-03-23T09:23:49Z</time>
      </trkpt>
      <trkpt lat="42.823994" lon="0.496028">
        <ele>1662.7</ele>
        <time>2013-03-23T09:24:14Z</time>
      </trkpt>
      <trkpt lat="42.824111" lon="0.496097">
        <ele>1668.5</ele>
        <time>2013-03-23T09:24:50Z</time>
      </trkpt>
      <trkpt lat="42.824186" lon="0.496164">
        <ele>1672.8</ele>
        <time>2013-03-23T09:25:15Z</time>
      </trkpt>
      <trkpt lat="42.824251" lon="0.496219">
        <ele>1676.2</ele>
        <time>2013-03-23T09:25:33Z</time>
      </trkpt>
      <trkpt lat="42.824298" lon="0.496255">
        <ele>1679.1</ele>
        <time>2013-03-23T09:25:50Z</time>
      </trkpt>
      <trkpt lat="42.824328" lon="0.496337">
        <ele>1681.5</ele>
        <time>2013-03-23T09:26:08Z</time>
      </trkpt>
      <trkpt lat="42.824388" lon="0.496416">
        <ele>1685.8</ele>
        <time>2013-03-23T09:26:38Z</time>
      </trkpt>
      <trkpt lat="42.824468" lon="0.496458">
        <ele>1689.7</ele>
        <time>2013-03-23T09:27:06Z</time>
      </trkpt>
      <trkpt lat="42.824526" lon="0.496534">
        <ele>1692.5</ele>
        <time>2013-03-23T09:27:30Z</time>
      </trkpt>
      <trkpt lat="42.824579" lon="0.496627">
        <ele>1694.5</ele>
        <time>2013-03-23T09:31:04Z</time>
      </trkpt>
      <trkpt lat="42.824632" lon="0.496732">
        <ele>1698.3</ele>
        <time>2013-03-23T09:31:22Z</time>
      </trkpt>
      <trkpt lat="42.824692" lon="0.496804">
        <ele>1701.7</ele>
        <time>2013-03-23T09:31:39Z</time>
      </trkpt>
      <trkpt lat="42.824753" lon="0.496843">
        <ele>1705.5</ele>
        <time>2013-03-23T09:32:03Z</time>
      </trkpt>
      <trkpt lat="42.824805" lon="0.496925">
        <ele>1708.4</ele>
        <time>2013-03-23T09:32:28Z</time>
      </trkpt>
      <trkpt lat="42.824870" lon="0.497007">
        <ele>1711.3</ele>
        <time>2013-03-23T09:32:49Z</time>
      </trkpt>
      <trkpt lat="42.824944" lon="0.497034">
        <ele>1714.2</ele>
        <time>2013-03-23T09:33:10Z</time>
      </trkpt>
      <trkpt lat="42.825015" lon="0.497040">
        <ele>1718.5</ele>
        <time>2013-03-23T09:33:30Z</time>
      </trkpt>
      <trkpt lat="42.825070" lon="0.497079">
        <ele>1721.4</ele>
        <time>2013-03-23T09:33:56Z</time>
      </trkpt>
      <trkpt lat="42.825126" lon="0.497160">
        <ele>1725.7</ele>
        <time>2013-03-23T09:34:20Z</time>
      </trkpt>
      <trkpt lat="42.825165" lon="0.497255">
        <ele>1729.1</ele>
        <time>2013-03-23T09:34:57Z</time>
      </trkpt>
      <trkpt lat="42.825237" lon="0.497228">
        <ele>1732.9</ele>
        <time>2013-03-23T09:35:17Z</time>
      </trkpt>
      <trkpt lat="42.825310" lon="0.497273">
        <ele>1738.2</ele>
        <time>2013-03-23T09:35:47Z</time>
      </trkpt>
      <trkpt lat="42.825366" lon="0.497319">
        <ele>1741.6</ele>
        <time>2013-03-23T09:36:14Z</time>
      </trkpt>
      <trkpt lat="42.825424" lon="0.497397">
        <ele>1746.4</ele>
        <time>2013-03-23T09:36:42Z</time>
      </trkpt>
      <trkpt lat="42.825443" lon="0.497507">
        <ele>1748.3</ele>
        <time>2013-03-23T09:37:03Z</time>
      </trkpt>
      <trkpt lat="42.825516" lon="0.497556">
        <ele>1752.1</ele>
        <time>2013-03-23T09:37:22Z</time>
      </trkpt>
      <trkpt lat="42.825579" lon="0.497608">
        <ele>1753.1</ele>
        <time>2013-03-23T09:37:36Z</time>
      </trkpt>
      <trkpt lat="42.825650" lon="0.497651">
        <ele>1755.5</ele>
        <time>2013-03-23T09:37:55Z</time>
      </trkpt>
      <trkpt lat="42.825738" lon="0.497653">
        <ele>1757.4</ele>
        <time>2013-03-23T09:38:14Z</time>
      </trkpt>
      <trkpt lat="42.825820" lon="0.497681">
        <ele>1760.3</ele>
        <time>2013-03-23T09:38:29Z</time>
      </trkpt>
      <trkpt lat="42.825884" lon="0.497712">
        <ele>1761.8</ele>
        <time>2013-03-23T09:38:42Z</time>
      </trkpt>
      <trkpt lat="42.825948" lon="0.497730">
        <ele>1764.2</ele>
        <time>2013-03-23T09:39:05Z</time>
      </trkpt>
      <trkpt lat="42.826052" lon="0.497794">
        <ele>1767.0</ele>
        <time>2013-03-23T09:39:30Z</time>
      </trkpt>
      <trkpt lat="42.826125" lon="0.497838">
        <ele>1769.4</ele>
        <time>2013-03-23T09:39:48Z</time>
      </trkpt>
      <trkpt lat="42.826201" lon="0.497898">
        <ele>1772.8</ele>
        <time>2013-03-23T09:40:13Z</time>
      </trkpt>
      <trkpt lat="42.826284" lon="0.497947">
        <ele>1775.2</ele>
        <time>2013-03-23T09:40:34Z</time>
      </trkpt>
      <trkpt lat="42.826362" lon="0.497975">
        <ele>1777.6</ele>
        <time>2013-03-23T09:40:52Z</time>
      </trkpt>
      <trkpt lat="42.826435" lon="0.498005">
        <ele>1780.0</ele>
        <time>2013-03-23T09:41:09Z</time>
      </trkpt>
      <trkpt lat="42.826514" lon="0.498030">
        <ele>1781.9</ele>
        <time>2013-03-23T09:41:28Z</time>
      </trkpt>
      <trkpt lat="42.826614" lon="0.498056">
        <ele>1786.3</ele>
        <time>2013-03-23T09:41:55Z</time>
      </trkpt>
      <trkpt lat="42.826719" lon="0.498066">
        <ele>1788.2</ele>
        <time>2013-03-23T09:42:15Z</time>
      </trkpt>
      <trkpt lat="42.826844" lon="0.498062">
        <ele>1791.6</ele>
        <time>2013-03-23T09:42:44Z</time>
      </trkpt>
      <trkpt lat="42.826950" lon="0.498046">
        <ele>1794.0</ele>
        <time>2013-03-23T09:43:10Z</time>
      </trkpt>
      <trkpt lat="42.827056" lon="0.498052">
        <ele>1796.4</ele>
        <time>2013-03-23T09:43:32Z</time>
      </trkpt>
      <trkpt lat="42.827141" lon="0.498073">
        <ele>1798.3</ele>
        <time>2013-03-23T09:43:51Z</time>
      </trkpt>
      <trkpt lat="42.827229" lon="0.498085">
        <ele>1800.7</ele>
        <time>2013-03-23T09:44:12Z</time>
      </trkpt>
      <trkpt lat="42.827313" lon="0.498098">
        <ele>1802.6</ele>
        <time>2013-03-23T09:44:30Z</time>
      </trkpt>
      <trkpt lat="42.827390" lon="0.498084">
        <ele>1805.5</ele>
        <time>2013-03-23T09:45:11Z</time>
      </trkpt>
      <trkpt lat="42.827493" lon="0.498113">
        <ele>1807.9</ele>
        <time>2013-03-23T09:45:32Z</time>
      </trkpt>
      <trkpt lat="42.827557" lon="0.498114">
        <ele>1809.8</ele>
        <time>2013-03-23T09:46:01Z</time>
      </trkpt>
      <trkpt lat="42.827661" lon="0.498110">
        <ele>1811.7</ele>
        <time>2013-03-23T09:46:23Z</time>
      </trkpt>
      <trkpt lat="42.827755" lon="0.498141">
        <ele>1814.2</ele>
        <time>2013-03-23T09:46:41Z</time>
      </trkpt>
      <trkpt lat="42.827828" lon="0.498176">
        <ele>1815.6</ele>
        <time>2013-03-23T09:47:08Z</time>
      </trkpt>
      <trkpt lat="42.827915" lon="0.498216">
        <ele>1817.5</ele>
        <time>2013-03-23T09:47:32Z</time>
      </trkpt>
      <trkpt lat="42.827997" lon="0.498285">
        <ele>1818.5</ele>
        <time>2013-03-23T09:47:50Z</time>
      </trkpt>
      <trkpt lat="42.828072" lon="0.498371">
        <ele>1819.4</ele>
        <time>2013-03-23T09:48:07Z</time>
      </trkpt>
      <trkpt lat="42.828119" lon="0.498479">
        <ele>1818.9</ele>
        <time>2013-03-23T09:48:21Z</time>
      </trkpt>
      <trkpt lat="42.828141" lon="0.498509">
        <ele>1818.9</ele>
        <time>2013-03-23T09:51:10Z</time>
      </trkpt>
      <trkpt lat="42.828157" lon="0.498524">
        <ele>1820.4</ele>
        <time>2013-03-23T09:57:02Z</time>
      </trkpt>
      <trkpt lat="42.828239" lon="0.498495">
        <ele>1822.8</ele>
        <time>2013-03-23T09:57:22Z</time>
      </trkpt>
      <trkpt lat="42.828329" lon="0.498474">
        <ele>1824.7</ele>
        <time>2013-03-23T09:57:40Z</time>
      </trkpt>
      <trkpt lat="42.828411" lon="0.498469">
        <ele>1826.6</ele>
        <time>2013-03-23T09:57:56Z</time>
      </trkpt>
      <trkpt lat="42.828499" lon="0.498466">
        <ele>1829.1</ele>
        <time>2013-03-23T09:58:17Z</time>
      </trkpt>
      <trkpt lat="42.828587" lon="0.498456">
        <ele>1830.5</ele>
        <time>2013-03-23T09:58:37Z</time>
      </trkpt>
      <trkpt lat="42.828664" lon="0.498485">
        <ele>1832.9</ele>
        <time>2013-03-23T09:59:11Z</time>
      </trkpt>
      <trkpt lat="42.828745" lon="0.498502">
        <ele>1835.8</ele>
        <time>2013-03-23T09:59:25Z</time>
      </trkpt>
      <trkpt lat="42.828832" lon="0.498547">
        <ele>1837.2</ele>
        <time>2013-03-23T09:59:38Z</time>
      </trkpt>
      <trkpt lat="42.828910" lon="0.498577">
        <ele>1840.1</ele>
        <time>2013-03-23T09:59:51Z</time>
      </trkpt>
      <trkpt lat="42.828993" lon="0.498611">
        <ele>1841.5</ele>
        <time>2013-03-23T10:00:04Z</time>
      </trkpt>
      <trkpt lat="42.829071" lon="0.498648">
        <ele>1843.5</ele>
        <time>2013-03-23T10:00:17Z</time>
      </trkpt>
      <trkpt lat="42.829147" lon="0.498677">
        <ele>1845.9</ele>
        <time>2013-03-23T10:00:32Z</time>
      </trkpt>
      <trkpt lat="42.829227" lon="0.498699">
        <ele>1846.8</ele>
        <time>2013-03-23T10:00:45Z</time>
      </trkpt>
      <trkpt lat="42.829320" lon="0.498704">
        <ele>1848.8</ele>
        <time>2013-03-23T10:00:59Z</time>
      </trkpt>
      <trkpt lat="42.829414" lon="0.498714">
        <ele>1850.2</ele>
        <time>2013-03-23T10:01:12Z</time>
      </trkpt>
      <trkpt lat="42.829498" lon="0.498729">
        <ele>1851.6</ele>
        <time>2013-03-23T10:01:26Z</time>
      </trkpt>
      <trkpt lat="42.829586" lon="0.498745">
        <ele>1853.6</ele>
        <time>2013-03-23T10:01:43Z</time>
      </trkpt>
      <trkpt lat="42.829662" lon="0.498725">
        <ele>1855.5</ele>
        <time>2013-03-23T10:01:59Z</time>
      </trkpt>
      <trkpt lat="42.829751" lon="0.498707">
        <ele>1858.4</ele>
        <time>2013-03-23T10:02:16Z</time>
      </trkpt>
      <trkpt lat="42.829860" lon="0.498702">
        <ele>1859.8</ele>
        <time>2013-03-23T10:02:33Z</time>
      </trkpt>
      <trkpt lat="42.829947" lon="0.498692">
        <ele>1861.2</ele>
        <time>2013-03-23T10:03:27Z</time>
      </trkpt>
      <trkpt lat="42.830030" lon="0.498657">
        <ele>1862.7</ele>
        <time>2013-03-23T10:03:41Z</time>
      </trkpt>
      <trkpt lat="42.830132" lon="0.498654">
        <ele>1864.6</ele>
        <time>2013-03-23T10:03:55Z</time>
      </trkpt>
      <trkpt lat="42.830223" lon="0.498668">
        <ele>1865.6</ele>
        <time>2013-03-23T10:04:08Z</time>
      </trkpt>
      <trkpt lat="42.830309" lon="0.498653">
        <ele>1867.0</ele>
        <time>2013-03-23T10:04:21Z</time>
      </trkpt>
      <trkpt lat="42.830396" lon="0.498652">
        <ele>1868.5</ele>
        <time>2013-03-23T10:04:34Z</time>
      </trkpt>
      <trkpt lat="42.830487" lon="0.498651">
        <ele>1869.9</ele>
        <time>2013-03-23T10:04:48Z</time>
      </trkpt>
      <trkpt lat="42.830576" lon="0.498607">
        <ele>1870.9</ele>
        <time>2013-03-23T10:05:03Z</time>
      </trkpt>
      <trkpt lat="42.830665" lon="0.498582">
        <ele>1872.3</ele>
        <time>2013-03-23T10:05:18Z</time>
      </trkpt>
      <trkpt lat="42.830754" lon="0.498563">
        <ele>1873.8</ele>
        <time>2013-03-23T10:05:31Z</time>
      </trkpt>
      <trkpt lat="42.830846" lon="0.498559">
        <ele>1874.7</ele>
        <time>2013-03-23T10:05:44Z</time>
      </trkpt>
      <trkpt lat="42.830942" lon="0.498564">
        <ele>1876.2</ele>
        <time>2013-03-23T10:05:56Z</time>
      </trkpt>
      <trkpt lat="42.831034" lon="0.498567">
        <ele>1877.6</ele>
        <time>2013-03-23T10:06:09Z</time>
      </trkpt>
      <trkpt lat="42.831122" lon="0.498584">
        <ele>1879.0</ele>
        <time>2013-03-23T10:06:21Z</time>
      </trkpt>
      <trkpt lat="42.831205" lon="0.498605">
        <ele>1880.0</ele>
        <time>2013-03-23T10:06:33Z</time>
      </trkpt>
      <trkpt lat="42.831284" lon="0.498620">
        <ele>1881.4</ele>
        <time>2013-03-23T10:06:47Z</time>
      </trkpt>
      <trkpt lat="42.831371" lon="0.498641">
        <ele>1882.9</ele>
        <time>2013-03-23T10:07:01Z</time>
      </trkpt>
      <trkpt lat="42.831455" lon="0.498672">
        <ele>1884.8</ele>
        <time>2013-03-23T10:07:16Z</time>
      </trkpt>
      <trkpt lat="42.831538" lon="0.498715">
        <ele>1885.8</ele>
        <time>2013-03-23T10:07:29Z</time>
      </trkpt>
      <trkpt lat="42.831613" lon="0.498683">
        <ele>1887.2</ele>
        <time>2013-03-23T10:07:41Z</time>
      </trkpt>
      <trkpt lat="42.831704" lon="0.498691">
        <ele>1888.2</ele>
        <time>2013-03-23T10:07:54Z</time>
      </trkpt>
      <trkpt lat="42.831796" lon="0.498663">
        <ele>1889.6</ele>
        <time>2013-03-23T10:08:10Z</time>
      </trkpt>
      <trkpt lat="42.831877" lon="0.498613">
        <ele>1891.1</ele>
        <time>2013-03-23T10:08:23Z</time>
      </trkpt>
      <trkpt lat="42.831974" lon="0.498572">
        <ele>1890.6</ele>
        <time>2013-03-23T10:12:08Z</time>
      </trkpt>
      <trkpt lat="42.832065" lon="0.498529">
        <ele>1889.1</ele>
        <time>2013-03-23T10:12:18Z</time>
      </trkpt>
      <trkpt lat="42.832152" lon="0.498507">
        <ele>1887.7</ele>
        <time>2013-03-23T10:13:33Z</time>
      </trkpt>
      <trkpt lat="42.832240" lon="0.498470">
        <ele>1887.7</ele>
        <time>2013-03-23T10:13:43Z</time>
        <name>Sarrat de Sacroues</name>
      </trkpt>
      <trkpt lat="42.832338" lon="0.498428">
        <ele>1887.7</ele>
        <time>2013-03-23T10:13:51Z</time>
      </trkpt>
      <trkpt lat="42.832425" lon="0.498391">
        <ele>1887.7</ele>
        <time>2013-03-23T10:13:58Z</time>
      </trkpt>
      <trkpt lat="42.832508" lon="0.498323">
        <ele>1887.2</ele>
        <time>2013-03-23T10:14:06Z</time>
      </trkpt>
      <trkpt lat="42.832570" lon="0.498263">
        <ele>1886.2</ele>
        <time>2013-03-23T10:14:20Z</time>
      </trkpt>
      <trkpt lat="42.832657" lon="0.498213">
        <ele>1885.3</ele>
        <time>2013-03-23T10:14:28Z</time>
      </trkpt>
      <trkpt lat="42.832739" lon="0.498161">
        <ele>1883.8</ele>
        <time>2013-03-23T10:14:37Z</time>
      </trkpt>
      <trkpt lat="42.832810" lon="0.498083">
        <ele>1882.4</ele>
        <time>2013-03-23T10:14:51Z</time>
      </trkpt>
      <trkpt lat="42.832898" lon="0.498041">
        <ele>1881.4</ele>
        <time>2013-03-23T10:15:02Z</time>
      </trkpt>
      <trkpt lat="42.832994" lon="0.498021">
        <ele>1880.5</ele>
        <time>2013-03-23T10:15:11Z</time>
      </trkpt>
      <trkpt lat="42.833096" lon="0.498001">
        <ele>1879.5</ele>
        <time>2013-03-23T10:15:21Z</time>
      </trkpt>
      <trkpt lat="42.833189" lon="0.497982">
        <ele>1878.6</ele>
        <time>2013-03-23T10:15:29Z</time>
      </trkpt>
      <trkpt lat="42.833279" lon="0.497951">
        <ele>1877.1</ele>
        <time>2013-03-23T10:15:38Z</time>
      </trkpt>
      <trkpt lat="42.833367" lon="0.497923">
        <ele>1876.6</ele>
        <time>2013-03-23T10:15:46Z</time>
      </trkpt>
      <trkpt lat="42.833458" lon="0.497895">
        <ele>1876.2</ele>
        <time>2013-03-23T10:15:54Z</time>
      </trkpt>
      <trkpt lat="42.833552" lon="0.497843">
        <ele>1876.2</ele>
        <time>2013-03-23T10:16:02Z</time>
      </trkpt>
      <trkpt lat="42.833644" lon="0.497804">
        <ele>1876.6</ele>
        <time>2013-03-23T10:16:11Z</time>
      </trkpt>
      <trkpt lat="42.833730" lon="0.497770">
        <ele>1877.1</ele>
        <time>2013-03-23T10:16:21Z</time>
      </trkpt>
      <trkpt lat="42.833737" lon="0.497780">
        <ele>1877.6</ele>
        <time>2013-03-23T10:16:51Z</time>
      </trkpt>
      <trkpt lat="42.833809" lon="0.497736">
        <ele>1878.1</ele>
        <time>2013-03-23T10:17:24Z</time>
      </trkpt>
      <trkpt lat="42.833901" lon="0.497690">
        <ele>1880.0</ele>
        <time>2013-03-23T10:17:35Z</time>
      </trkpt>
      <trkpt lat="42.833984" lon="0.497628">
        <ele>1881.4</ele>
        <time>2013-03-23T10:17:45Z</time>
      </trkpt>
      <trkpt lat="42.834076" lon="0.497590">
        <ele>1882.9</ele>
        <time>2013-03-23T10:17:55Z</time>
      </trkpt>
      <trkpt lat="42.834173" lon="0.497572">
        <ele>1884.3</ele>
        <time>2013-03-23T10:18:05Z</time>
      </trkpt>
      <trkpt lat="42.834253" lon="0.497554">
        <ele>1884.8</ele>
        <time>2013-03-23T10:18:15Z</time>
      </trkpt>
      <trkpt lat="42.834341" lon="0.497531">
        <ele>1885.8</ele>
        <time>2013-03-23T10:18:25Z</time>
      </trkpt>
      <trkpt lat="42.834430" lon="0.497506">
        <ele>1886.7</ele>
        <time>2013-03-23T10:18:35Z</time>
      </trkpt>
      <trkpt lat="42.834520" lon="0.497485">
        <ele>1887.7</ele>
        <time>2013-03-23T10:18:45Z</time>
      </trkpt>
      <trkpt lat="42.834618" lon="0.497460">
        <ele>1887.7</ele>
        <time>2013-03-23T10:18:55Z</time>
      </trkpt>
      <trkpt lat="42.834710" lon="0.497420">
        <ele>1888.2</ele>
        <time>2013-03-23T10:19:06Z</time>
      </trkpt>
      <trkpt lat="42.834809" lon="0.497399">
        <ele>1888.2</ele>
        <time>2013-03-23T10:19:16Z</time>
      </trkpt>
      <trkpt lat="42.834909" lon="0.497373">
        <ele>1888.7</ele>
        <time>2013-03-23T10:19:26Z</time>
      </trkpt>
      <trkpt lat="42.835008" lon="0.497341">
        <ele>1889.6</ele>
        <time>2013-03-23T10:19:36Z</time>
      </trkpt>
      <trkpt lat="42.835110" lon="0.497310">
        <ele>1890.6</ele>
        <time>2013-03-23T10:19:46Z</time>
      </trkpt>
      <trkpt lat="42.835207" lon="0.497301">
        <ele>1891.1</ele>
        <time>2013-03-23T10:19:57Z</time>
      </trkpt>
      <trkpt lat="42.835296" lon="0.497288">
        <ele>1892.0</ele>
        <time>2013-03-23T10:20:25Z</time>
      </trkpt>
      <trkpt lat="42.835393" lon="0.497285">
        <ele>1892.5</ele>
        <time>2013-03-23T10:20:35Z</time>
      </trkpt>
      <trkpt lat="42.835483" lon="0.497286">
        <ele>1893.9</ele>
        <time>2013-03-23T10:20:45Z</time>
      </trkpt>
      <trkpt lat="42.835577" lon="0.497285">
        <ele>1894.4</ele>
        <time>2013-03-23T10:20:54Z</time>
      </trkpt>
      <trkpt lat="42.835670" lon="0.497284">
        <ele>1895.4</ele>
        <time>2013-03-23T10:21:04Z</time>
      </trkpt>
      <trkpt lat="42.835744" lon="0.497261">
        <ele>1896.3</ele>
        <time>2013-03-23T10:21:13Z</time>
      </trkpt>
      <trkpt lat="42.835839" lon="0.497242">
        <ele>1896.8</ele>
        <time>2013-03-23T10:21:23Z</time>
      </trkpt>
      <trkpt lat="42.835932" lon="0.497257">
        <ele>1897.8</ele>
        <time>2013-03-23T10:21:34Z</time>
      </trkpt>
      <trkpt lat="42.836030" lon="0.497302">
        <ele>1898.7</ele>
        <time>2013-03-23T10:21:46Z</time>
      </trkpt>
      <trkpt lat="42.836112" lon="0.497277">
        <ele>1898.7</ele>
        <time>2013-03-23T10:22:31Z</time>
      </trkpt>
      <trkpt lat="42.836139" lon="0.497321">
        <ele>1898.3</ele>
        <time>2013-03-23T10:28:37Z</time>
      </trkpt>
      <trkpt lat="42.836225" lon="0.497348">
        <ele>1898.7</ele>
        <time>2013-03-23T10:28:51Z</time>
      </trkpt>
      <trkpt lat="42.836307" lon="0.497384">
        <ele>1899.2</ele>
        <time>2013-03-23T10:29:01Z</time>
      </trkpt>
      <trkpt lat="42.836402" lon="0.497400">
        <ele>1900.7</ele>
        <time>2013-03-23T10:29:13Z</time>
      </trkpt>
      <trkpt lat="42.836498" lon="0.497434">
        <ele>1901.1</ele>
        <time>2013-03-23T10:29:25Z</time>
      </trkpt>
      <trkpt lat="42.836591" lon="0.497432">
        <ele>1901.6</ele>
        <time>2013-03-23T10:29:38Z</time>
      </trkpt>
      <trkpt lat="42.836682" lon="0.497417">
        <ele>1902.6</ele>
        <time>2013-03-23T10:29:49Z</time>
      </trkpt>
      <trkpt lat="42.836779" lon="0.497417">
        <ele>1903.1</ele>
        <time>2013-03-23T10:30:01Z</time>
      </trkpt>
      <trkpt lat="42.836873" lon="0.497423">
        <ele>1904.5</ele>
        <time>2013-03-23T10:30:14Z</time>
      </trkpt>
      <trkpt lat="42.836948" lon="0.497460">
        <ele>1905.9</ele>
        <time>2013-03-23T10:31:01Z</time>
      </trkpt>
      <trkpt lat="42.837025" lon="0.497473">
        <ele>1907.9</ele>
        <time>2013-03-23T10:31:22Z</time>
      </trkpt>
      <trkpt lat="42.837123" lon="0.497478">
        <ele>1910.3</ele>
        <time>2013-03-23T10:31:37Z</time>
      </trkpt>
      <trkpt lat="42.837230" lon="0.497487">
        <ele>1912.2</ele>
        <time>2013-03-23T10:31:51Z</time>
      </trkpt>
      <trkpt lat="42.837332" lon="0.497485">
        <ele>1914.1</ele>
        <time>2013-03-23T10:32:04Z</time>
      </trkpt>
      <trkpt lat="42.837421" lon="0.497483">
        <ele>1915.6</ele>
        <time>2013-03-23T10:32:15Z</time>
      </trkpt>
      <trkpt lat="42.837512" lon="0.497464">
        <ele>1916.5</ele>
        <time>2013-03-23T10:32:27Z</time>
      </trkpt>
      <trkpt lat="42.837605" lon="0.497450">
        <ele>1917.5</ele>
        <time>2013-03-23T10:32:45Z</time>
      </trkpt>
      <trkpt lat="42.837700" lon="0.497430">
        <ele>1918.4</ele>
        <time>2013-03-23T10:32:56Z</time>
      </trkpt>
      <trkpt lat="42.837788" lon="0.497400">
        <ele>1919.4</ele>
        <time>2013-03-23T10:33:07Z</time>
      </trkpt>
      <trkpt lat="42.837883" lon="0.497357">
        <ele>1919.4</ele>
        <time>2013-03-23T10:33:18Z</time>
      </trkpt>
      <trkpt lat="42.837982" lon="0.497328">
        <ele>1920.4</ele>
        <time>2013-03-23T10:33:30Z</time>
      </trkpt>
      <trkpt lat="42.838062" lon="0.497245">
        <ele>1920.8</ele>
        <time>2013-03-23T10:34:00Z</time>
      </trkpt>
      <trkpt lat="42.838106" lon="0.497173">
        <ele>1920.4</ele>
        <time>2013-03-23T10:34:43Z</time>
      </trkpt>
      <trkpt lat="42.838156" lon="0.497170">
        <ele>1920.4</ele>
        <time>2013-03-23T10:39:09Z</time>
      </trkpt>
      <trkpt lat="42.838146" lon="0.497164">
        <ele>1920.8</ele>
        <time>2013-03-23T10:40:50Z</time>
      </trkpt>
      <trkpt lat="42.838214" lon="0.497110">
        <ele>1920.4</ele>
        <time>2013-03-23T10:41:13Z</time>
      </trkpt>
      <trkpt lat="42.838296" lon="0.497040">
        <ele>1920.4</ele>
        <time>2013-03-23T10:41:24Z</time>
      </trkpt>
      <trkpt lat="42.838381" lon="0.496965">
        <ele>1919.9</ele>
        <time>2013-03-23T10:41:37Z</time>
      </trkpt>
      <trkpt lat="42.838447" lon="0.496865">
        <ele>1919.9</ele>
        <time>2013-03-23T10:41:47Z</time>
      </trkpt>
      <trkpt lat="42.838498" lon="0.496767">
        <ele>1918.9</ele>
        <time>2013-03-23T10:41:57Z</time>
      </trkpt>
      <trkpt lat="42.838551" lon="0.496674">
        <ele>1918.9</ele>
        <time>2013-03-23T10:42:08Z</time>
      </trkpt>
      <trkpt lat="42.838604" lon="0.496573">
        <ele>1918.4</ele>
        <time>2013-03-23T10:42:17Z</time>
      </trkpt>
      <trkpt lat="42.838671" lon="0.496470">
        <ele>1918.4</ele>
        <time>2013-03-23T10:42:27Z</time>
      </trkpt>
      <trkpt lat="42.838742" lon="0.496386">
        <ele>1918.0</ele>
        <time>2013-03-23T10:42:36Z</time>
      </trkpt>
      <trkpt lat="42.838812" lon="0.496279">
        <ele>1917.0</ele>
        <time>2013-03-23T10:42:46Z</time>
      </trkpt>
      <trkpt lat="42.838876" lon="0.496179">
        <ele>1916.5</ele>
        <time>2013-03-23T10:42:55Z</time>
      </trkpt>
      <trkpt lat="42.838930" lon="0.496079">
        <ele>1915.6</ele>
        <time>2013-03-23T10:43:04Z</time>
      </trkpt>
      <trkpt lat="42.838993" lon="0.495983">
        <ele>1915.1</ele>
        <time>2013-03-23T10:43:13Z</time>
      </trkpt>
      <trkpt lat="42.839055" lon="0.495883">
        <ele>1914.1</ele>
        <time>2013-03-23T10:43:22Z</time>
      </trkpt>
      <trkpt lat="42.839121" lon="0.495792">
        <ele>1913.2</ele>
        <time>2013-03-23T10:43:30Z</time>
      </trkpt>
      <trkpt lat="42.839187" lon="0.495716">
        <ele>1912.7</ele>
        <time>2013-03-23T10:43:38Z</time>
      </trkpt>
      <trkpt lat="42.839249" lon="0.495628">
        <ele>1911.7</ele>
        <time>2013-03-23T10:43:46Z</time>
      </trkpt>
      <trkpt lat="42.839315" lon="0.495523">
        <ele>1911.7</ele>
        <time>2013-03-23T10:43:55Z</time>
      </trkpt>
      <trkpt lat="42.839387" lon="0.495423">
        <ele>1910.8</ele>
        <time>2013-03-23T10:44:04Z</time>
      </trkpt>
      <trkpt lat="42.839451" lon="0.495333">
        <ele>1909.8</ele>
        <time>2013-03-23T10:44:13Z</time>
      </trkpt>
      <trkpt lat="42.839520" lon="0.495248">
        <ele>1909.3</ele>
        <time>2013-03-23T10:44:21Z</time>
      </trkpt>
      <trkpt lat="42.839569" lon="0.495186">
        <ele>1908.8</ele>
        <time>2013-03-23T10:45:13Z</time>
      </trkpt>
      <trkpt lat="42.839642" lon="0.495120">
        <ele>1908.3</ele>
        <time>2013-03-23T10:45:32Z</time>
      </trkpt>
      <trkpt lat="42.839718" lon="0.495025">
        <ele>1907.4</ele>
        <time>2013-03-23T10:45:44Z</time>
      </trkpt>
      <trkpt lat="42.839771" lon="0.494916">
        <ele>1906.4</ele>
        <time>2013-03-23T10:45:55Z</time>
      </trkpt>
      <trkpt lat="42.839826" lon="0.494812">
        <ele>1905.9</ele>
        <time>2013-03-23T10:46:05Z</time>
      </trkpt>
      <trkpt lat="42.839890" lon="0.494703">
        <ele>1905.0</ele>
        <time>2013-03-23T10:46:15Z</time>
      </trkpt>
      <trkpt lat="42.839943" lon="0.494597">
        <ele>1905.0</ele>
        <time>2013-03-23T10:46:24Z</time>
      </trkpt>
      <trkpt lat="42.840008" lon="0.494486">
        <ele>1904.5</ele>
        <time>2013-03-23T10:46:33Z</time>
      </trkpt>
      <trkpt lat="42.840077" lon="0.494379">
        <ele>1905.0</ele>
        <time>2013-03-23T10:46:43Z</time>
      </trkpt>
      <trkpt lat="42.840135" lon="0.494274">
        <ele>1905.0</ele>
        <time>2013-03-23T10:46:52Z</time>
      </trkpt>
      <trkpt lat="42.840199" lon="0.494179">
        <ele>1905.5</ele>
        <time>2013-03-23T10:47:01Z</time>
      </trkpt>
      <trkpt lat="42.840253" lon="0.494066">
        <ele>1905.5</ele>
        <time>2013-03-23T10:47:11Z</time>
      </trkpt>
      <trkpt lat="42.840312" lon="0.493964">
        <ele>1905.5</ele>
        <time>2013-03-23T10:47:21Z</time>
      </trkpt>
      <trkpt lat="42.840368" lon="0.493857">
        <ele>1905.5</ele>
        <time>2013-03-23T10:47:31Z</time>
      </trkpt>
      <trkpt lat="42.840421" lon="0.493743">
        <ele>1905.9</ele>
        <time>2013-03-23T10:47:40Z</time>
      </trkpt>
      <trkpt lat="42.840477" lon="0.493641">
        <ele>1906.9</ele>
        <time>2013-03-23T10:47:50Z</time>
      </trkpt>
      <trkpt lat="42.840530" lon="0.493530">
        <ele>1908.3</ele>
        <time>2013-03-23T10:48:00Z</time>
      </trkpt>
      <trkpt lat="42.840582" lon="0.493427">
        <ele>1909.3</ele>
        <time>2013-03-23T10:48:09Z</time>
      </trkpt>
      <trkpt lat="42.840631" lon="0.493322">
        <ele>1910.8</ele>
        <time>2013-03-23T10:48:20Z</time>
      </trkpt>
      <trkpt lat="42.840696" lon="0.493206">
        <ele>1911.7</ele>
        <time>2013-03-23T10:48:31Z</time>
      </trkpt>
      <trkpt lat="42.840764" lon="0.493106">
        <ele>1912.7</ele>
        <time>2013-03-23T10:48:40Z</time>
      </trkpt>
      <trkpt lat="42.840829" lon="0.493010">
        <ele>1913.6</ele>
        <time>2013-03-23T10:48:50Z</time>
      </trkpt>
      <trkpt lat="42.840895" lon="0.492918">
        <ele>1915.1</ele>
        <time>2013-03-23T10:49:00Z</time>
      </trkpt>
      <trkpt lat="42.840967" lon="0.492820">
        <ele>1916.5</ele>
        <time>2013-03-23T10:49:11Z</time>
      </trkpt>
      <trkpt lat="42.841033" lon="0.492728">
        <ele>1917.5</ele>
        <time>2013-03-23T10:49:32Z</time>
      </trkpt>
      <trkpt lat="42.841098" lon="0.492625">
        <ele>1918.9</ele>
        <time>2013-03-23T10:49:43Z</time>
      </trkpt>
      <trkpt lat="42.841164" lon="0.492525">
        <ele>1921.3</ele>
        <time>2013-03-23T10:49:55Z</time>
      </trkpt>
      <trkpt lat="42.841227" lon="0.492427">
        <ele>1922.3</ele>
        <time>2013-03-23T10:50:07Z</time>
      </trkpt>
      <trkpt lat="42.841296" lon="0.492352">
        <ele>1924.2</ele>
        <time>2013-03-23T10:50:19Z</time>
      </trkpt>
      <trkpt lat="42.841362" lon="0.492272">
        <ele>1925.2</ele>
        <time>2013-03-23T10:50:31Z</time>
      </trkpt>
      <trkpt lat="42.841425" lon="0.492182">
        <ele>1927.6</ele>
        <time>2013-03-23T10:50:43Z</time>
      </trkpt>
      <trkpt lat="42.841491" lon="0.492099">
        <ele>1929.5</ele>
        <time>2013-03-23T10:50:55Z</time>
      </trkpt>
      <trkpt lat="42.841551" lon="0.492008">
        <ele>1931.4</ele>
        <time>2013-03-23T10:51:07Z</time>
      </trkpt>
      <trkpt lat="42.841605" lon="0.491905">
        <ele>1932.9</ele>
        <time>2013-03-23T10:51:20Z</time>
      </trkpt>
      <trkpt lat="42.841655" lon="0.491877">
        <ele>1934.3</ele>
        <time>2013-03-23T10:52:00Z</time>
      </trkpt>
      <trkpt lat="42.841724" lon="0.491803">
        <ele>1934.8</ele>
        <time>2013-03-23T10:52:12Z</time>
      </trkpt>
      <trkpt lat="42.841814" lon="0.491740">
        <ele>1936.2</ele>
        <time>2013-03-23T10:52:23Z</time>
      </trkpt>
      <trkpt lat="42.841892" lon="0.491664">
        <ele>1937.2</ele>
        <time>2013-03-23T10:52:32Z</time>
      </trkpt>
      <trkpt lat="42.841959" lon="0.491580">
        <ele>1938.6</ele>
        <time>2013-03-23T10:52:40Z</time>
      </trkpt>
      <trkpt lat="42.842020" lon="0.491490">
        <ele>1939.1</ele>
        <time>2013-03-23T10:52:48Z</time>
      </trkpt>
      <trkpt lat="42.842081" lon="0.491392">
        <ele>1940.1</ele>
        <time>2013-03-23T10:52:58Z</time>
      </trkpt>
      <trkpt lat="42.842132" lon="0.491284">
        <ele>1940.1</ele>
        <time>2013-03-23T10:53:08Z</time>
      </trkpt>
      <trkpt lat="42.842194" lon="0.491175">
        <ele>1940.6</ele>
        <time>2013-03-23T10:53:17Z</time>
      </trkpt>
      <trkpt lat="42.842250" lon="0.491069">
        <ele>1940.1</ele>
        <time>2013-03-23T10:53:26Z</time>
      </trkpt>
      <trkpt lat="42.842313" lon="0.490970">
        <ele>1940.6</ele>
        <time>2013-03-23T10:53:35Z</time>
      </trkpt>
      <trkpt lat="42.842373" lon="0.490869">
        <ele>1941.0</ele>
        <time>2013-03-23T10:53:44Z</time>
      </trkpt>
      <trkpt lat="42.842427" lon="0.490759">
        <ele>1941.5</ele>
        <time>2013-03-23T10:53:53Z</time>
      </trkpt>
      <trkpt lat="42.842476" lon="0.490648">
        <ele>1941.5</ele>
        <time>2013-03-23T10:54:02Z</time>
      </trkpt>
      <trkpt lat="42.842539" lon="0.490534">
        <ele>1942.0</ele>
        <time>2013-03-23T10:54:12Z</time>
      </trkpt>
      <trkpt lat="42.842596" lon="0.490427">
        <ele>1942.5</ele>
        <time>2013-03-23T10:54:21Z</time>
      </trkpt>
      <trkpt lat="42.842655" lon="0.490320">
        <ele>1943.0</ele>
        <time>2013-03-23T10:54:30Z</time>
      </trkpt>
      <trkpt lat="42.842719" lon="0.490226">
        <ele>1943.0</ele>
        <time>2013-03-23T10:55:31Z</time>
      </trkpt>
      <trkpt lat="42.842772" lon="0.490111">
        <ele>1942.0</ele>
        <time>2013-03-23T10:55:40Z</time>
      </trkpt>
      <trkpt lat="42.842825" lon="0.490003">
        <ele>1941.0</ele>
        <time>2013-03-23T10:55:48Z</time>
      </trkpt>
      <trkpt lat="42.842882" lon="0.489900">
        <ele>1940.6</ele>
        <time>2013-03-23T10:55:56Z</time>
      </trkpt>
      <trkpt lat="42.842941" lon="0.489785">
        <ele>1939.1</ele>
        <time>2013-03-23T10:56:05Z</time>
      </trkpt>
      <trkpt lat="42.842989" lon="0.489680">
        <ele>1937.7</ele>
        <time>2013-03-23T10:56:13Z</time>
      </trkpt>
      <trkpt lat="42.843053" lon="0.489576">
        <ele>1936.7</ele>
        <time>2013-03-23T10:56:22Z</time>
      </trkpt>
      <trkpt lat="42.843111" lon="0.489462">
        <ele>1935.8</ele>
        <time>2013-03-23T10:56:31Z</time>
      </trkpt>
      <trkpt lat="42.843163" lon="0.489340">
        <ele>1934.8</ele>
        <time>2013-03-23T10:56:40Z</time>
      </trkpt>
      <trkpt lat="42.843212" lon="0.489235">
        <ele>1935.3</ele>
        <time>2013-03-23T10:56:49Z</time>
      </trkpt>
      <trkpt lat="42.843275" lon="0.489117">
        <ele>1935.8</ele>
        <time>2013-03-23T10:56:59Z</time>
      </trkpt>
      <trkpt lat="42.843328" lon="0.489031">
        <ele>1935.3</ele>
        <time>2013-03-23T10:57:50Z</time>
      </trkpt>
      <trkpt lat="42.843393" lon="0.488928">
        <ele>1935.3</ele>
        <time>2013-03-23T10:57:58Z</time>
      </trkpt>
      <trkpt lat="42.843446" lon="0.488819">
        <ele>1934.8</ele>
        <time>2013-03-23T10:58:06Z</time>
      </trkpt>
      <trkpt lat="42.843505" lon="0.488718">
        <ele>1933.8</ele>
        <time>2013-03-23T10:58:14Z</time>
      </trkpt>
      <trkpt lat="42.843548" lon="0.488602">
        <ele>1933.8</ele>
        <time>2013-03-23T10:58:25Z</time>
      </trkpt>
      <trkpt lat="42.843580" lon="0.488576">
        <ele>1934.8</ele>
        <time>2013-03-23T11:02:48Z</time>
      </trkpt>
      <trkpt lat="42.843614" lon="0.488477">
        <ele>1935.3</ele>
        <time>2013-03-23T11:03:50Z</time>
      </trkpt>
      <trkpt lat="42.843663" lon="0.488365">
        <ele>1936.2</ele>
        <time>2013-03-23T11:04:02Z</time>
      </trkpt>
      <trkpt lat="42.843718" lon="0.488263">
        <ele>1937.7</ele>
        <time>2013-03-23T11:04:14Z</time>
      </trkpt>
      <trkpt lat="42.843770" lon="0.488164">
        <ele>1939.6</ele>
        <time>2013-03-23T11:04:26Z</time>
      </trkpt>
      <trkpt lat="42.843828" lon="0.488069">
        <ele>1941.0</ele>
        <time>2013-03-23T11:04:38Z</time>
      </trkpt>
      <trkpt lat="42.843891" lon="0.487981">
        <ele>1942.5</ele>
        <time>2013-03-23T11:04:52Z</time>
      </trkpt>
      <trkpt lat="42.843946" lon="0.487885">
        <ele>1945.4</ele>
        <time>2013-03-23T11:05:11Z</time>
      </trkpt>
      <trkpt lat="42.844017" lon="0.487811">
        <ele>1947.3</ele>
        <time>2013-03-23T11:05:23Z</time>
      </trkpt>
      <trkpt lat="42.844082" lon="0.487740">
        <ele>1949.7</ele>
        <time>2013-03-23T11:05:38Z</time>
      </trkpt>
      <trkpt lat="42.844165" lon="0.487687">
        <ele>1953.1</ele>
        <time>2013-03-23T11:05:54Z</time>
      </trkpt>
      <trkpt lat="42.844249" lon="0.487634">
        <ele>1955.9</ele>
        <time>2013-03-23T11:06:10Z</time>
      </trkpt>
      <trkpt lat="42.844325" lon="0.487575">
        <ele>1958.8</ele>
        <time>2013-03-23T11:06:25Z</time>
      </trkpt>
      <trkpt lat="42.844405" lon="0.487529">
        <ele>1961.2</ele>
        <time>2013-03-23T11:06:38Z</time>
      </trkpt>
      <trkpt lat="42.844480" lon="0.487471">
        <ele>1963.2</ele>
        <time>2013-03-23T11:06:52Z</time>
      </trkpt>
      <trkpt lat="42.844554" lon="0.487432">
        <ele>1965.1</ele>
        <time>2013-03-23T11:07:06Z</time>
      </trkpt>
      <trkpt lat="42.844627" lon="0.487381">
        <ele>1966.5</ele>
        <time>2013-03-23T11:07:19Z</time>
      </trkpt>
      <trkpt lat="42.844687" lon="0.487312">
        <ele>1968.0</ele>
        <time>2013-03-23T11:07:33Z</time>
      </trkpt>
      <trkpt lat="42.844774" lon="0.487272">
        <ele>1969.4</ele>
        <time>2013-03-23T11:07:48Z</time>
      </trkpt>
      <trkpt lat="42.844860" lon="0.487204">
        <ele>1971.3</ele>
        <time>2013-03-23T11:08:00Z</time>
      </trkpt>
      <trkpt lat="42.844949" lon="0.487143">
        <ele>1971.8</ele>
        <time>2013-03-23T11:08:14Z</time>
      </trkpt>
      <trkpt lat="42.845039" lon="0.487098">
        <ele>1973.2</ele>
        <time>2013-03-23T11:08:25Z</time>
      </trkpt>
      <trkpt lat="42.845127" lon="0.487029">
        <ele>1973.7</ele>
        <time>2013-03-23T11:08:37Z</time>
      </trkpt>
      <trkpt lat="42.845225" lon="0.486998">
        <ele>1974.7</ele>
        <time>2013-03-23T11:08:50Z</time>
      </trkpt>
      <trkpt lat="42.845328" lon="0.486967">
        <ele>1975.2</ele>
        <time>2013-03-23T11:09:02Z</time>
      </trkpt>
      <trkpt lat="42.845426" lon="0.486949">
        <ele>1975.7</ele>
        <time>2013-03-23T11:09:15Z</time>
      </trkpt>
      <trkpt lat="42.845513" lon="0.486941">
        <ele>1975.7</ele>
        <time>2013-03-23T11:09:26Z</time>
      </trkpt>
      <trkpt lat="42.845610" lon="0.486921">
        <ele>1976.1</ele>
        <time>2013-03-23T11:09:41Z</time>
      </trkpt>
      <trkpt lat="42.845716" lon="0.486888">
        <ele>1976.1</ele>
        <time>2013-03-23T11:09:57Z</time>
      </trkpt>
      <trkpt lat="42.845813" lon="0.486855">
        <ele>1975.7</ele>
        <time>2013-03-23T11:10:08Z</time>
        <name>Cap de la Lit</name>
      </trkpt>
      <trkpt lat="42.845833" lon="0.486869">
        <ele>1976.6</ele>
        <time>2013-03-23T11:14:54Z</time>
      </trkpt>
      <trkpt lat="42.845745" lon="0.486920">
        <ele>1975.7</ele>
        <time>2013-03-23T11:15:04Z</time>
      </trkpt>
      <trkpt lat="42.845677" lon="0.486983">
        <ele>1976.6</ele>
        <time>2013-03-23T11:15:20Z</time>
      </trkpt>
      <trkpt lat="42.845488" lon="0.487006">
        <ele>1976.6</ele>
        <time>2013-03-23T11:15:39Z</time>
      </trkpt>
      <trkpt lat="42.845392" lon="0.487008">
        <ele>1975.7</ele>
        <time>2013-03-23T11:15:48Z</time>
      </trkpt>
      <trkpt lat="42.845297" lon="0.487039">
        <ele>1975.2</ele>
        <time>2013-03-23T11:15:57Z</time>
      </trkpt>
      <trkpt lat="42.845205" lon="0.487091">
        <ele>1975.2</ele>
        <time>2013-03-23T11:16:06Z</time>
      </trkpt>
      <trkpt lat="42.845108" lon="0.487148">
        <ele>1973.7</ele>
        <time>2013-03-23T11:16:15Z</time>
      </trkpt>
      <trkpt lat="42.845014" lon="0.487215">
        <ele>1972.8</ele>
        <time>2013-03-23T11:16:23Z</time>
      </trkpt>
      <trkpt lat="42.844917" lon="0.487273">
        <ele>1971.8</ele>
        <time>2013-03-23T11:16:32Z</time>
      </trkpt>
      <trkpt lat="42.844833" lon="0.487334">
        <ele>1970.4</ele>
        <time>2013-03-23T11:16:40Z</time>
      </trkpt>
      <trkpt lat="42.844734" lon="0.487349">
        <ele>1968.9</ele>
        <time>2013-03-23T11:16:48Z</time>
      </trkpt>
      <trkpt lat="42.844648" lon="0.487378">
        <ele>1967.0</ele>
        <time>2013-03-23T11:16:55Z</time>
      </trkpt>
      <trkpt lat="42.844552" lon="0.487426">
        <ele>1965.1</ele>
        <time>2013-03-23T11:17:03Z</time>
      </trkpt>
      <trkpt lat="42.844457" lon="0.487488">
        <ele>1963.2</ele>
        <time>2013-03-23T11:17:11Z</time>
      </trkpt>
      <trkpt lat="42.844368" lon="0.487554">
        <ele>1960.8</ele>
        <time>2013-03-23T11:17:18Z</time>
      </trkpt>
      <trkpt lat="42.844286" lon="0.487616">
        <ele>1957.4</ele>
        <time>2013-03-23T11:17:25Z</time>
      </trkpt>
      <trkpt lat="42.844195" lon="0.487682">
        <ele>1954.5</ele>
        <time>2013-03-23T11:17:33Z</time>
      </trkpt>
      <trkpt lat="42.844107" lon="0.487744">
        <ele>1951.1</ele>
        <time>2013-03-23T11:17:40Z</time>
      </trkpt>
      <trkpt lat="42.844021" lon="0.487832">
        <ele>1948.2</ele>
        <time>2013-03-23T11:17:48Z</time>
      </trkpt>
      <trkpt lat="42.843951" lon="0.487936">
        <ele>1945.4</ele>
        <time>2013-03-23T11:17:56Z</time>
      </trkpt>
      <trkpt lat="42.843892" lon="0.488035">
        <ele>1942.5</ele>
        <time>2013-03-23T11:18:03Z</time>
      </trkpt>
      <trkpt lat="42.843831" lon="0.488146">
        <ele>1940.6</ele>
        <time>2013-03-23T11:18:10Z</time>
      </trkpt>
      <trkpt lat="42.843769" lon="0.488262">
        <ele>1939.1</ele>
        <time>2013-03-23T11:18:17Z</time>
      </trkpt>
      <trkpt lat="42.843718" lon="0.488365">
        <ele>1937.7</ele>
        <time>2013-03-23T11:18:24Z</time>
      </trkpt>
      <trkpt lat="42.843664" lon="0.488468">
        <ele>1936.2</ele>
        <time>2013-03-23T11:18:31Z</time>
      </trkpt>
      <trkpt lat="42.843620" lon="0.488581">
        <ele>1934.8</ele>
        <time>2013-03-23T11:18:38Z</time>
      </trkpt>
      <trkpt lat="42.843569" lon="0.488705">
        <ele>1934.3</ele>
        <time>2013-03-23T11:18:46Z</time>
      </trkpt>
      <trkpt lat="42.843512" lon="0.488813">
        <ele>1934.8</ele>
        <time>2013-03-23T11:18:54Z</time>
      </trkpt>
      <trkpt lat="42.843462" lon="0.488931">
        <ele>1935.8</ele>
        <time>2013-03-23T11:19:02Z</time>
      </trkpt>
      <trkpt lat="42.843412" lon="0.489054">
        <ele>1935.8</ele>
        <time>2013-03-23T11:19:10Z</time>
      </trkpt>
      <trkpt lat="42.843355" lon="0.489175">
        <ele>1936.7</ele>
        <time>2013-03-23T11:19:19Z</time>
      </trkpt>
      <trkpt lat="42.843301" lon="0.489301">
        <ele>1937.2</ele>
        <time>2013-03-23T11:19:28Z</time>
      </trkpt>
      <trkpt lat="42.843243" lon="0.489430">
        <ele>1936.2</ele>
        <time>2013-03-23T11:19:36Z</time>
      </trkpt>
      <trkpt lat="42.843197" lon="0.489550">
        <ele>1936.2</ele>
        <time>2013-03-23T11:19:44Z</time>
      </trkpt>
      <trkpt lat="42.843133" lon="0.489655">
        <ele>1934.8</ele>
        <time>2013-03-23T11:19:52Z</time>
      </trkpt>
      <trkpt lat="42.843055" lon="0.489793">
        <ele>1938.2</ele>
        <time>2013-03-23T11:20:01Z</time>
      </trkpt>
      <trkpt lat="42.843008" lon="0.489915">
        <ele>1940.1</ele>
        <time>2013-03-23T11:20:10Z</time>
      </trkpt>
      <trkpt lat="42.842955" lon="0.490035">
        <ele>1940.6</ele>
        <time>2013-03-23T11:20:18Z</time>
      </trkpt>
      <trkpt lat="42.842902" lon="0.490135">
        <ele>1941.5</ele>
        <time>2013-03-23T11:20:27Z</time>
      </trkpt>
      <trkpt lat="42.842856" lon="0.490181">
        <ele>1943.0</ele>
        <time>2013-03-23T11:20:44Z</time>
      </trkpt>
      <trkpt lat="42.842836" lon="0.490162">
        <ele>1940.6</ele>
        <time>2013-03-23T11:44:19Z</time>
      </trkpt>
      <trkpt lat="42.842820" lon="0.490176">
        <ele>1942.5</ele>
        <time>2013-03-23T11:58:51Z</time>
      </trkpt>
      <trkpt lat="42.842797" lon="0.490199">
        <ele>1938.2</ele>
        <time>2013-03-23T12:01:12Z</time>
      </trkpt>
      <trkpt lat="42.842719" lon="0.490246">
        <ele>1942.0</ele>
        <time>2013-03-23T12:01:49Z</time>
      </trkpt>
      <trkpt lat="42.842644" lon="0.490296">
        <ele>1942.5</ele>
        <time>2013-03-23T12:02:02Z</time>
      </trkpt>
      <trkpt lat="42.842575" lon="0.490381">
        <ele>1942.5</ele>
        <time>2013-03-23T12:02:12Z</time>
      </trkpt>
      <trkpt lat="42.842511" lon="0.490483">
        <ele>1941.5</ele>
        <time>2013-03-23T12:02:22Z</time>
      </trkpt>
      <trkpt lat="42.842450" lon="0.490592">
        <ele>1941.0</ele>
        <time>2013-03-23T12:02:32Z</time>
      </trkpt>
      <trkpt lat="42.842393" lon="0.490701">
        <ele>1940.6</ele>
        <time>2013-03-23T12:02:41Z</time>
      </trkpt>
      <trkpt lat="42.842346" lon="0.490803">
        <ele>1939.6</ele>
        <time>2013-03-23T12:02:49Z</time>
      </trkpt>
      <trkpt lat="42.842295" lon="0.490903">
        <ele>1939.6</ele>
        <time>2013-03-23T12:02:58Z</time>
      </trkpt>
      <trkpt lat="42.842241" lon="0.491010">
        <ele>1940.1</ele>
        <time>2013-03-23T12:03:07Z</time>
      </trkpt>
      <trkpt lat="42.842188" lon="0.491100">
        <ele>1939.6</ele>
        <time>2013-03-23T12:03:15Z</time>
      </trkpt>
      <trkpt lat="42.842141" lon="0.491214">
        <ele>1938.6</ele>
        <time>2013-03-23T12:03:24Z</time>
      </trkpt>
      <trkpt lat="42.842084" lon="0.491324">
        <ele>1938.6</ele>
        <time>2013-03-23T12:03:33Z</time>
      </trkpt>
      <trkpt lat="42.842031" lon="0.491434">
        <ele>1938.6</ele>
        <time>2013-03-23T12:03:42Z</time>
      </trkpt>
      <trkpt lat="42.841969" lon="0.491529">
        <ele>1937.7</ele>
        <time>2013-03-23T12:03:51Z</time>
      </trkpt>
      <trkpt lat="42.841896" lon="0.491604">
        <ele>1937.2</ele>
        <time>2013-03-23T12:03:59Z</time>
      </trkpt>
      <trkpt lat="42.841819" lon="0.491653">
        <ele>1935.8</ele>
        <time>2013-03-23T12:04:08Z</time>
      </trkpt>
      <trkpt lat="42.841746" lon="0.491725">
        <ele>1934.8</ele>
        <time>2013-03-23T12:04:17Z</time>
      </trkpt>
      <trkpt lat="42.841672" lon="0.491791">
        <ele>1933.3</ele>
        <time>2013-03-23T12:04:25Z</time>
      </trkpt>
      <trkpt lat="42.841606" lon="0.491853">
        <ele>1932.9</ele>
        <time>2013-03-23T12:04:33Z</time>
      </trkpt>
      <trkpt lat="42.841530" lon="0.491930">
        <ele>1930.5</ele>
        <time>2013-03-23T12:04:41Z</time>
      </trkpt>
      <trkpt lat="42.841459" lon="0.492021">
        <ele>1929.0</ele>
        <time>2013-03-23T12:04:49Z</time>
      </trkpt>
      <trkpt lat="42.841383" lon="0.492115">
        <ele>1927.1</ele>
        <time>2013-03-23T12:04:57Z</time>
      </trkpt>
      <trkpt lat="42.841310" lon="0.492205">
        <ele>1924.7</ele>
        <time>2013-03-23T12:05:05Z</time>
      </trkpt>
      <trkpt lat="42.841235" lon="0.492302">
        <ele>1922.8</ele>
        <time>2013-03-23T12:05:13Z</time>
      </trkpt>
      <trkpt lat="42.841156" lon="0.492392">
        <ele>1921.3</ele>
        <time>2013-03-23T12:05:21Z</time>
      </trkpt>
      <trkpt lat="42.841087" lon="0.492492">
        <ele>1919.9</ele>
        <time>2013-03-23T12:05:30Z</time>
      </trkpt>
      <trkpt lat="42.841017" lon="0.492582">
        <ele>1917.5</ele>
        <time>2013-03-23T12:05:38Z</time>
      </trkpt>
      <trkpt lat="42.840950" lon="0.492675">
        <ele>1916.0</ele>
        <time>2013-03-23T12:05:46Z</time>
      </trkpt>
      <trkpt lat="42.840890" lon="0.492773">
        <ele>1915.6</ele>
        <time>2013-03-23T12:05:54Z</time>
      </trkpt>
      <trkpt lat="42.840835" lon="0.492875">
        <ele>1913.6</ele>
        <time>2013-03-23T12:06:02Z</time>
      </trkpt>
      <trkpt lat="42.840784" lon="0.492978">
        <ele>1912.2</ele>
        <time>2013-03-23T12:06:10Z</time>
      </trkpt>
      <trkpt lat="42.840719" lon="0.493082">
        <ele>1910.8</ele>
        <time>2013-03-23T12:06:18Z</time>
      </trkpt>
      <trkpt lat="42.840659" lon="0.493181">
        <ele>1910.8</ele>
        <time>2013-03-23T12:06:27Z</time>
      </trkpt>
      <trkpt lat="42.840604" lon="0.493270">
        <ele>1909.8</ele>
        <time>2013-03-23T12:06:35Z</time>
      </trkpt>
      <trkpt lat="42.840549" lon="0.493372">
        <ele>1908.8</ele>
        <time>2013-03-23T12:06:43Z</time>
      </trkpt>
      <trkpt lat="42.840493" lon="0.493475">
        <ele>1907.4</ele>
        <time>2013-03-23T12:06:51Z</time>
      </trkpt>
      <trkpt lat="42.840443" lon="0.493593">
        <ele>1906.4</ele>
        <time>2013-03-23T12:06:59Z</time>
      </trkpt>
      <trkpt lat="42.840389" lon="0.493688">
        <ele>1905.5</ele>
        <time>2013-03-23T12:07:06Z</time>
      </trkpt>
      <trkpt lat="42.840334" lon="0.493800">
        <ele>1905.0</ele>
        <time>2013-03-23T12:07:14Z</time>
      </trkpt>
      <trkpt lat="42.840272" lon="0.493908">
        <ele>1904.5</ele>
        <time>2013-03-23T12:07:22Z</time>
      </trkpt>
      <trkpt lat="42.840216" lon="0.494005">
        <ele>1904.0</ele>
        <time>2013-03-23T12:07:30Z</time>
      </trkpt>
      <trkpt lat="42.840155" lon="0.494137">
        <ele>1903.6</ele>
        <time>2013-03-23T12:07:44Z</time>
      </trkpt>
      <trkpt lat="42.840110" lon="0.494235">
        <ele>1903.6</ele>
        <time>2013-03-23T12:07:58Z</time>
      </trkpt>
      <trkpt lat="42.840054" lon="0.494348">
        <ele>1903.6</ele>
        <time>2013-03-23T12:08:06Z</time>
      </trkpt>
      <trkpt lat="42.839983" lon="0.494448">
        <ele>1903.1</ele>
        <time>2013-03-23T12:08:14Z</time>
      </trkpt>
      <trkpt lat="42.839921" lon="0.494535">
        <ele>1903.1</ele>
        <time>2013-03-23T12:08:21Z</time>
      </trkpt>
      <trkpt lat="42.839870" lon="0.494653">
        <ele>1903.6</ele>
        <time>2013-03-23T12:08:29Z</time>
      </trkpt>
      <trkpt lat="42.839820" lon="0.494773">
        <ele>1904.0</ele>
        <time>2013-03-23T12:08:38Z</time>
      </trkpt>
      <trkpt lat="42.839761" lon="0.494886">
        <ele>1904.5</ele>
        <time>2013-03-23T12:08:48Z</time>
      </trkpt>
      <trkpt lat="42.839688" lon="0.494980">
        <ele>1905.0</ele>
        <time>2013-03-23T12:09:01Z</time>
      </trkpt>
      <trkpt lat="42.839621" lon="0.495089">
        <ele>1905.9</ele>
        <time>2013-03-23T12:09:10Z</time>
      </trkpt>
      <trkpt lat="42.839548" lon="0.495186">
        <ele>1907.4</ele>
        <time>2013-03-23T12:09:19Z</time>
      </trkpt>
      <trkpt lat="42.839466" lon="0.495254">
        <ele>1907.4</ele>
        <time>2013-03-23T12:09:27Z</time>
      </trkpt>
      <trkpt lat="42.839401" lon="0.495357">
        <ele>1908.3</ele>
        <time>2013-03-23T12:09:38Z</time>
      </trkpt>
      <trkpt lat="42.839339" lon="0.495454">
        <ele>1908.8</ele>
        <time>2013-03-23T12:09:48Z</time>
      </trkpt>
      <trkpt lat="42.839273" lon="0.495535">
        <ele>1909.8</ele>
        <time>2013-03-23T12:09:57Z</time>
      </trkpt>
      <trkpt lat="42.839204" lon="0.495623">
        <ele>1910.8</ele>
        <time>2013-03-23T12:10:06Z</time>
      </trkpt>
      <trkpt lat="42.839136" lon="0.495716">
        <ele>1910.8</ele>
        <time>2013-03-23T12:10:16Z</time>
      </trkpt>
      <trkpt lat="42.839059" lon="0.495806">
        <ele>1911.2</ele>
        <time>2013-03-23T12:10:25Z</time>
      </trkpt>
      <trkpt lat="42.838993" lon="0.495915">
        <ele>1914.6</ele>
        <time>2013-03-23T12:10:35Z</time>
      </trkpt>
      <trkpt lat="42.838936" lon="0.496013">
        <ele>1913.6</ele>
        <time>2013-03-23T12:10:45Z</time>
      </trkpt>
      <trkpt lat="42.838884" lon="0.496092">
        <ele>1914.1</ele>
        <time>2013-03-23T12:10:54Z</time>
      </trkpt>
      <trkpt lat="42.838814" lon="0.496191">
        <ele>1915.1</ele>
        <time>2013-03-23T12:11:04Z</time>
      </trkpt>
      <trkpt lat="42.838750" lon="0.496279">
        <ele>1915.6</ele>
        <time>2013-03-23T12:11:13Z</time>
      </trkpt>
      <trkpt lat="42.838685" lon="0.496375">
        <ele>1916.0</ele>
        <time>2013-03-23T12:11:22Z</time>
      </trkpt>
      <trkpt lat="42.838623" lon="0.496481">
        <ele>1917.0</ele>
        <time>2013-03-23T12:11:34Z</time>
      </trkpt>
      <trkpt lat="42.838548" lon="0.496576">
        <ele>1916.5</ele>
        <time>2013-03-23T12:11:44Z</time>
      </trkpt>
      <trkpt lat="42.838483" lon="0.496676">
        <ele>1917.0</ele>
        <time>2013-03-23T12:11:53Z</time>
      </trkpt>
      <trkpt lat="42.838423" lon="0.496784">
        <ele>1917.5</ele>
        <time>2013-03-23T12:12:02Z</time>
      </trkpt>
      <trkpt lat="42.838362" lon="0.496884">
        <ele>1918.0</ele>
        <time>2013-03-23T12:12:11Z</time>
      </trkpt>
      <trkpt lat="42.838294" lon="0.496963">
        <ele>1918.4</ele>
        <time>2013-03-23T12:12:19Z</time>
      </trkpt>
      <trkpt lat="42.838222" lon="0.497052">
        <ele>1918.9</ele>
        <time>2013-03-23T12:12:28Z</time>
      </trkpt>
      <trkpt lat="42.838140" lon="0.497129">
        <ele>1919.4</ele>
        <time>2013-03-23T12:12:37Z</time>
      </trkpt>
      <trkpt lat="42.838069" lon="0.497209">
        <ele>1918.9</ele>
        <time>2013-03-23T12:12:46Z</time>
      </trkpt>
      <trkpt lat="42.838045" lon="0.497240">
        <ele>1919.9</ele>
        <time>2013-03-23T12:13:55Z</time>
      </trkpt>
      <trkpt lat="42.838060" lon="0.497241">
        <ele>1914.1</ele>
        <time>2013-03-23T12:15:45Z</time>
      </trkpt>
      <trkpt lat="42.838053" lon="0.497227">
        <ele>1920.4</ele>
        <time>2013-03-23T12:19:25Z</time>
      </trkpt>
      <trkpt lat="42.838059" lon="0.497275">
        <ele>1920.8</ele>
        <time>2013-03-23T12:20:41Z</time>
      </trkpt>
      <trkpt lat="42.838012" lon="0.497389">
        <ele>1921.3</ele>
        <time>2013-03-23T12:20:52Z</time>
      </trkpt>
      <trkpt lat="42.837988" lon="0.497508">
        <ele>1921.8</ele>
        <time>2013-03-23T12:21:02Z</time>
      </trkpt>
      <trkpt lat="42.837962" lon="0.497639">
        <ele>1921.8</ele>
        <time>2013-03-23T12:21:11Z</time>
      </trkpt>
      <trkpt lat="42.837927" lon="0.497757">
        <ele>1921.8</ele>
        <time>2013-03-23T12:21:20Z</time>
      </trkpt>
      <trkpt lat="42.837897" lon="0.497882">
        <ele>1921.8</ele>
        <time>2013-03-23T12:21:29Z</time>
      </trkpt>
      <trkpt lat="42.837874" lon="0.498013">
        <ele>1921.3</ele>
        <time>2013-03-23T12:21:38Z</time>
      </trkpt>
      <trkpt lat="42.837847" lon="0.498140">
        <ele>1921.3</ele>
        <time>2013-03-23T12:21:47Z</time>
      </trkpt>
      <trkpt lat="42.837811" lon="0.498268">
        <ele>1920.8</ele>
        <time>2013-03-23T12:21:56Z</time>
      </trkpt>
      <trkpt lat="42.837778" lon="0.498386">
        <ele>1920.4</ele>
        <time>2013-03-23T12:22:04Z</time>
      </trkpt>
      <trkpt lat="42.837749" lon="0.498514">
        <ele>1920.8</ele>
        <time>2013-03-23T12:22:13Z</time>
      </trkpt>
      <trkpt lat="42.837706" lon="0.498623">
        <ele>1920.8</ele>
        <time>2013-03-23T12:22:23Z</time>
      </trkpt>
      <trkpt lat="42.837671" lon="0.498743">
        <ele>1918.9</ele>
        <time>2013-03-23T12:22:34Z</time>
      </trkpt>
      <trkpt lat="42.837643" lon="0.498857">
        <ele>1918.9</ele>
        <time>2013-03-23T12:22:42Z</time>
      </trkpt>
      <trkpt lat="42.837605" lon="0.498971">
        <ele>1916.5</ele>
        <time>2013-03-23T12:22:55Z</time>
      </trkpt>
      <trkpt lat="42.837576" lon="0.499095">
        <ele>1915.1</ele>
        <time>2013-03-23T12:23:03Z</time>
      </trkpt>
      <trkpt lat="42.837545" lon="0.499213">
        <ele>1913.6</ele>
        <time>2013-03-23T12:23:10Z</time>
      </trkpt>
      <trkpt lat="42.837509" lon="0.499339">
        <ele>1911.2</ele>
        <time>2013-03-23T12:23:18Z</time>
      </trkpt>
      <trkpt lat="42.837489" lon="0.499458">
        <ele>1908.8</ele>
        <time>2013-03-23T12:23:26Z</time>
      </trkpt>
      <trkpt lat="42.837448" lon="0.499578">
        <ele>1909.8</ele>
        <time>2013-03-23T12:23:33Z</time>
      </trkpt>
      <trkpt lat="42.837421" lon="0.499712">
        <ele>1908.3</ele>
        <time>2013-03-23T12:23:41Z</time>
      </trkpt>
      <trkpt lat="42.837394" lon="0.499837">
        <ele>1907.4</ele>
        <time>2013-03-23T12:23:49Z</time>
      </trkpt>
      <trkpt lat="42.837365" lon="0.499969">
        <ele>1906.9</ele>
        <time>2013-03-23T12:23:57Z</time>
      </trkpt>
      <trkpt lat="42.837337" lon="0.500093">
        <ele>1905.9</ele>
        <time>2013-03-23T12:24:05Z</time>
      </trkpt>
      <trkpt lat="42.837306" lon="0.500219">
        <ele>1905.0</ele>
        <time>2013-03-23T12:24:13Z</time>
      </trkpt>
      <trkpt lat="42.837276" lon="0.500352">
        <ele>1905.0</ele>
        <time>2013-03-23T12:24:21Z</time>
      </trkpt>
      <trkpt lat="42.837244" lon="0.500475">
        <ele>1905.0</ele>
        <time>2013-03-23T12:24:29Z</time>
      </trkpt>
      <trkpt lat="42.837220" lon="0.500587">
        <ele>1904.5</ele>
        <time>2013-03-23T12:24:37Z</time>
      </trkpt>
      <trkpt lat="42.837195" lon="0.500718">
        <ele>1904.0</ele>
        <time>2013-03-23T12:24:45Z</time>
      </trkpt>
      <trkpt lat="42.837171" lon="0.500850">
        <ele>1904.0</ele>
        <time>2013-03-23T12:24:54Z</time>
      </trkpt>
      <trkpt lat="42.837146" lon="0.500972">
        <ele>1905.0</ele>
        <time>2013-03-23T12:25:03Z</time>
      </trkpt>
      <trkpt lat="42.837115" lon="0.501091">
        <ele>1905.5</ele>
        <time>2013-03-23T12:25:11Z</time>
      </trkpt>
      <trkpt lat="42.837086" lon="0.501214">
        <ele>1905.9</ele>
        <time>2013-03-23T12:25:20Z</time>
      </trkpt>
      <trkpt lat="42.837055" lon="0.501341">
        <ele>1905.5</ele>
        <time>2013-03-23T12:25:29Z</time>
      </trkpt>
      <trkpt lat="42.837029" lon="0.501467">
        <ele>1905.5</ele>
        <time>2013-03-23T12:25:38Z</time>
      </trkpt>
      <trkpt lat="42.836997" lon="0.501595">
        <ele>1906.9</ele>
        <time>2013-03-23T12:25:48Z</time>
      </trkpt>
      <trkpt lat="42.836959" lon="0.501722">
        <ele>1907.4</ele>
        <time>2013-03-23T12:25:59Z</time>
      </trkpt>
      <trkpt lat="42.836922" lon="0.501849">
        <ele>1908.3</ele>
        <time>2013-03-23T12:26:09Z</time>
      </trkpt>
      <trkpt lat="42.836891" lon="0.501972">
        <ele>1908.8</ele>
        <time>2013-03-23T12:26:18Z</time>
      </trkpt>
      <trkpt lat="42.836847" lon="0.502050">
        <ele>1909.8</ele>
        <time>2013-03-23T12:29:15Z</time>
      </trkpt>
      <trkpt lat="42.836824" lon="0.502184">
        <ele>1911.2</ele>
        <time>2013-03-23T12:29:26Z</time>
      </trkpt>
      <trkpt lat="42.836799" lon="0.502307">
        <ele>1912.2</ele>
        <time>2013-03-23T12:29:37Z</time>
      </trkpt>
      <trkpt lat="42.836762" lon="0.502424">
        <ele>1912.7</ele>
        <time>2013-03-23T12:29:48Z</time>
      </trkpt>
      <trkpt lat="42.836722" lon="0.502546">
        <ele>1914.1</ele>
        <time>2013-03-23T12:29:58Z</time>
      </trkpt>
      <trkpt lat="42.836685" lon="0.502665">
        <ele>1915.1</ele>
        <time>2013-03-23T12:30:09Z</time>
      </trkpt>
      <trkpt lat="42.836653" lon="0.502789">
        <ele>1916.5</ele>
        <time>2013-03-23T12:30:19Z</time>
      </trkpt>
      <trkpt lat="42.836632" lon="0.502916">
        <ele>1917.0</ele>
        <time>2013-03-23T12:30:30Z</time>
      </trkpt>
      <trkpt lat="42.836588" lon="0.503040">
        <ele>1918.4</ele>
        <time>2013-03-23T12:30:41Z</time>
      </trkpt>
      <trkpt lat="42.836535" lon="0.503153">
        <ele>1919.4</ele>
        <time>2013-03-23T12:30:51Z</time>
      </trkpt>
      <trkpt lat="42.836476" lon="0.503271">
        <ele>1920.4</ele>
        <time>2013-03-23T12:31:02Z</time>
      </trkpt>
      <trkpt lat="42.836426" lon="0.503382">
        <ele>1920.4</ele>
        <time>2013-03-23T12:31:12Z</time>
      </trkpt>
      <trkpt lat="42.836361" lon="0.503499">
        <ele>1921.3</ele>
        <time>2013-03-23T12:31:23Z</time>
      </trkpt>
      <trkpt lat="42.836297" lon="0.503604">
        <ele>1922.3</ele>
        <time>2013-03-23T12:31:33Z</time>
      </trkpt>
      <trkpt lat="42.836251" lon="0.503708">
        <ele>1923.2</ele>
        <time>2013-03-23T12:31:44Z</time>
      </trkpt>
      <trkpt lat="42.836208" lon="0.503823">
        <ele>1923.7</ele>
        <time>2013-03-23T12:31:54Z</time>
      </trkpt>
      <trkpt lat="42.836157" lon="0.503926">
        <ele>1924.2</ele>
        <time>2013-03-23T12:32:04Z</time>
      </trkpt>
      <trkpt lat="42.836088" lon="0.504018">
        <ele>1923.2</ele>
        <time>2013-03-23T12:32:14Z</time>
      </trkpt>
      <trkpt lat="42.836026" lon="0.504105">
        <ele>1923.2</ele>
        <time>2013-03-23T12:32:23Z</time>
      </trkpt>
      <trkpt lat="42.835952" lon="0.504187">
        <ele>1924.2</ele>
        <time>2013-03-23T12:32:33Z</time>
        <name>Honteyde</name>
      </trkpt>
      <trkpt lat="42.835883" lon="0.504274">
        <ele>1923.2</ele>
        <time>2013-03-23T12:32:43Z</time>
      </trkpt>
      <trkpt lat="42.835815" lon="0.504361">
        <ele>1923.2</ele>
        <time>2013-03-23T12:32:53Z</time>
      </trkpt>
      <trkpt lat="42.835794" lon="0.504398">
        <ele>1923.2</ele>
        <time>2013-03-23T12:34:45Z</time>
      </trkpt>
      <trkpt lat="42.835849" lon="0.504404">
        <ele>1922.8</ele>
        <time>2013-03-23T12:35:33Z</time>
      </trkpt>
      <trkpt lat="42.835789" lon="0.504391">
        <ele>1922.8</ele>
        <time>2013-03-23T12:37:08Z</time>
      </trkpt>
      <trkpt lat="42.835770" lon="0.504506">
        <ele>1923.7</ele>
        <time>2013-03-23T12:37:20Z</time>
      </trkpt>
      <trkpt lat="42.835720" lon="0.504618">
        <ele>1922.8</ele>
        <time>2013-03-23T12:37:30Z</time>
      </trkpt>
      <trkpt lat="42.835668" lon="0.504724">
        <ele>1922.3</ele>
        <time>2013-03-23T12:37:40Z</time>
      </trkpt>
      <trkpt lat="42.835614" lon="0.504845">
        <ele>1921.3</ele>
        <time>2013-03-23T12:37:49Z</time>
      </trkpt>
      <trkpt lat="42.835559" lon="0.504949">
        <ele>1920.4</ele>
        <time>2013-03-23T12:37:57Z</time>
      </trkpt>
      <trkpt lat="42.835494" lon="0.505032">
        <ele>1919.4</ele>
        <time>2013-03-23T12:38:05Z</time>
      </trkpt>
      <trkpt lat="42.835419" lon="0.505115">
        <ele>1918.4</ele>
        <time>2013-03-23T12:38:13Z</time>
      </trkpt>
      <trkpt lat="42.835353" lon="0.505199">
        <ele>1917.0</ele>
        <time>2013-03-23T12:38:21Z</time>
      </trkpt>
      <trkpt lat="42.835281" lon="0.505294">
        <ele>1914.6</ele>
        <time>2013-03-23T12:38:30Z</time>
      </trkpt>
      <trkpt lat="42.835213" lon="0.505393">
        <ele>1913.2</ele>
        <time>2013-03-23T12:38:40Z</time>
      </trkpt>
      <trkpt lat="42.835150" lon="0.505490">
        <ele>1910.3</ele>
        <time>2013-03-23T12:38:49Z</time>
      </trkpt>
      <trkpt lat="42.835081" lon="0.505583">
        <ele>1908.8</ele>
        <time>2013-03-23T12:38:59Z</time>
      </trkpt>
      <trkpt lat="42.835016" lon="0.505662">
        <ele>1907.4</ele>
        <time>2013-03-23T12:39:09Z</time>
      </trkpt>
      <trkpt lat="42.834974" lon="0.505762">
        <ele>1905.5</ele>
        <time>2013-03-23T12:39:18Z</time>
      </trkpt>
      <trkpt lat="42.834898" lon="0.505834">
        <ele>1903.1</ele>
        <time>2013-03-23T12:39:28Z</time>
      </trkpt>
      <trkpt lat="42.834834" lon="0.505921">
        <ele>1900.7</ele>
        <time>2013-03-23T12:39:38Z</time>
      </trkpt>
      <trkpt lat="42.834755" lon="0.506014">
        <ele>1897.8</ele>
        <time>2013-03-23T12:39:47Z</time>
      </trkpt>
      <trkpt lat="42.834681" lon="0.506094">
        <ele>1894.4</ele>
        <time>2013-03-23T12:39:56Z</time>
      </trkpt>
      <trkpt lat="42.834591" lon="0.506138">
        <ele>1892.0</ele>
        <time>2013-03-23T12:40:06Z</time>
      </trkpt>
      <trkpt lat="42.834513" lon="0.506202">
        <ele>1890.1</ele>
        <time>2013-03-23T12:40:16Z</time>
      </trkpt>
      <trkpt lat="42.834428" lon="0.506246">
        <ele>1887.7</ele>
        <time>2013-03-23T12:40:24Z</time>
      </trkpt>
      <trkpt lat="42.834424" lon="0.506191">
        <ele>1888.7</ele>
        <time>2013-03-23T12:41:22Z</time>
      </trkpt>
      <trkpt lat="42.834369" lon="0.506268">
        <ele>1886.2</ele>
        <time>2013-03-23T12:41:38Z</time>
      </trkpt>
      <trkpt lat="42.834297" lon="0.506332">
        <ele>1882.9</ele>
        <time>2013-03-23T12:41:46Z</time>
      </trkpt>
      <trkpt lat="42.834225" lon="0.506415">
        <ele>1879.0</ele>
        <time>2013-03-23T12:41:54Z</time>
      </trkpt>
      <trkpt lat="42.834160" lon="0.506483">
        <ele>1874.2</ele>
        <time>2013-03-23T12:42:02Z</time>
      </trkpt>
      <trkpt lat="42.834092" lon="0.506578">
        <ele>1869.9</ele>
        <time>2013-03-23T12:42:10Z</time>
      </trkpt>
      <trkpt lat="42.834027" lon="0.506679">
        <ele>1866.1</ele>
        <time>2013-03-23T12:42:17Z</time>
      </trkpt>
      <trkpt lat="42.833975" lon="0.506788">
        <ele>1861.2</ele>
        <time>2013-03-23T12:42:25Z</time>
      </trkpt>
      <trkpt lat="42.833938" lon="0.506889">
        <ele>1857.9</ele>
        <time>2013-03-23T12:42:33Z</time>
      </trkpt>
      <trkpt lat="42.833893" lon="0.506994">
        <ele>1856.0</ele>
        <time>2013-03-23T12:42:40Z</time>
      </trkpt>
      <trkpt lat="42.833853" lon="0.507093">
        <ele>1853.1</ele>
        <time>2013-03-23T12:42:46Z</time>
      </trkpt>
      <trkpt lat="42.833820" lon="0.507202">
        <ele>1850.7</ele>
        <time>2013-03-23T12:42:53Z</time>
      </trkpt>
      <trkpt lat="42.833769" lon="0.507314">
        <ele>1846.8</ele>
        <time>2013-03-23T12:43:01Z</time>
      </trkpt>
      <trkpt lat="42.833735" lon="0.507426">
        <ele>1843.9</ele>
        <time>2013-03-23T12:43:10Z</time>
      </trkpt>
      <trkpt lat="42.833706" lon="0.507536">
        <ele>1842.5</ele>
        <time>2013-03-23T12:43:19Z</time>
      </trkpt>
      <trkpt lat="42.833689" lon="0.507637">
        <ele>1839.1</ele>
        <time>2013-03-23T12:43:28Z</time>
      </trkpt>
      <trkpt lat="42.833661" lon="0.507747">
        <ele>1837.2</ele>
        <time>2013-03-23T12:43:43Z</time>
      </trkpt>
      <trkpt lat="42.833625" lon="0.507862">
        <ele>1834.3</ele>
        <time>2013-03-23T12:43:51Z</time>
      </trkpt>
      <trkpt lat="42.833573" lon="0.507976">
        <ele>1831.4</ele>
        <time>2013-03-23T12:43:59Z</time>
      </trkpt>
      <trkpt lat="42.833578" lon="0.508010">
        <ele>1829.5</ele>
        <time>2013-03-23T12:44:35Z</time>
      </trkpt>
      <trkpt lat="42.833560" lon="0.508074">
        <ele>1829.5</ele>
        <time>2013-03-23T12:47:57Z</time>
      </trkpt>
      <trkpt lat="42.833518" lon="0.508187">
        <ele>1827.1</ele>
        <time>2013-03-23T12:48:05Z</time>
      </trkpt>
      <trkpt lat="42.833457" lon="0.508272">
        <ele>1824.2</ele>
        <time>2013-03-23T12:48:13Z</time>
      </trkpt>
      <trkpt lat="42.833406" lon="0.508322">
        <ele>1822.3</ele>
        <time>2013-03-23T12:48:57Z</time>
      </trkpt>
      <trkpt lat="42.833357" lon="0.508442">
        <ele>1818.5</ele>
        <time>2013-03-23T12:49:05Z</time>
      </trkpt>
      <trkpt lat="42.833299" lon="0.508544">
        <ele>1816.1</ele>
        <time>2013-03-23T12:49:13Z</time>
      </trkpt>
      <trkpt lat="42.833256" lon="0.508650">
        <ele>1813.7</ele>
        <time>2013-03-23T12:49:21Z</time>
      </trkpt>
      <trkpt lat="42.833203" lon="0.508756">
        <ele>1811.3</ele>
        <time>2013-03-23T12:49:29Z</time>
      </trkpt>
      <trkpt lat="42.833157" lon="0.508871">
        <ele>1808.4</ele>
        <time>2013-03-23T12:49:41Z</time>
      </trkpt>
      <trkpt lat="42.833106" lon="0.508983">
        <ele>1806.4</ele>
        <time>2013-03-23T12:49:52Z</time>
      </trkpt>
      <trkpt lat="42.833052" lon="0.509085">
        <ele>1804.5</ele>
        <time>2013-03-23T12:50:02Z</time>
      </trkpt>
      <trkpt lat="42.832997" lon="0.509167">
        <ele>1802.6</ele>
        <time>2013-03-23T12:50:14Z</time>
      </trkpt>
      <trkpt lat="42.832955" lon="0.509285">
        <ele>1800.2</ele>
        <time>2013-03-23T12:50:23Z</time>
      </trkpt>
      <trkpt lat="42.832906" lon="0.509390">
        <ele>1799.2</ele>
        <time>2013-03-23T12:50:31Z</time>
      </trkpt>
      <trkpt lat="42.832855" lon="0.509496">
        <ele>1797.8</ele>
        <time>2013-03-23T12:50:39Z</time>
      </trkpt>
      <trkpt lat="42.832825" lon="0.509603">
        <ele>1796.8</ele>
        <time>2013-03-23T12:50:48Z</time>
      </trkpt>
      <trkpt lat="42.832781" lon="0.509711">
        <ele>1796.4</ele>
        <time>2013-03-23T12:50:57Z</time>
      </trkpt>
      <trkpt lat="42.832737" lon="0.509813">
        <ele>1796.4</ele>
        <time>2013-03-23T12:51:06Z</time>
      </trkpt>
      <trkpt lat="42.832684" lon="0.509936">
        <ele>1795.9</ele>
        <time>2013-03-23T12:51:16Z</time>
      </trkpt>
      <trkpt lat="42.832657" lon="0.510069">
        <ele>1795.4</ele>
        <time>2013-03-23T12:51:25Z</time>
      </trkpt>
      <trkpt lat="42.832654" lon="0.510209">
        <ele>1794.4</ele>
        <time>2013-03-23T12:51:34Z</time>
      </trkpt>
      <trkpt lat="42.832648" lon="0.510340">
        <ele>1793.5</ele>
        <time>2013-03-23T12:51:43Z</time>
      </trkpt>
      <trkpt lat="42.832642" lon="0.510472">
        <ele>1792.5</ele>
        <time>2013-03-23T12:51:52Z</time>
      </trkpt>
      <trkpt lat="42.832631" lon="0.510591">
        <ele>1791.6</ele>
        <time>2013-03-23T12:52:00Z</time>
      </trkpt>
      <trkpt lat="42.832626" lon="0.510711">
        <ele>1790.1</ele>
        <time>2013-03-23T12:52:08Z</time>
      </trkpt>
      <trkpt lat="42.832627" lon="0.510829">
        <ele>1789.2</ele>
        <time>2013-03-23T12:52:16Z</time>
      </trkpt>
      <trkpt lat="42.832618" lon="0.510963">
        <ele>1787.7</ele>
        <time>2013-03-23T12:52:25Z</time>
      </trkpt>
      <trkpt lat="42.832597" lon="0.511089">
        <ele>1786.8</ele>
        <time>2013-03-23T12:52:34Z</time>
      </trkpt>
      <trkpt lat="42.832587" lon="0.511216">
        <ele>1785.8</ele>
        <time>2013-03-23T12:52:43Z</time>
      </trkpt>
      <trkpt lat="42.832576" lon="0.511345">
        <ele>1784.8</ele>
        <time>2013-03-23T12:52:52Z</time>
      </trkpt>
      <trkpt lat="42.832560" lon="0.511471">
        <ele>1784.8</ele>
        <time>2013-03-23T12:53:01Z</time>
      </trkpt>
      <trkpt lat="42.832565" lon="0.511604">
        <ele>1784.3</ele>
        <time>2013-03-23T12:53:10Z</time>
      </trkpt>
      <trkpt lat="42.832567" lon="0.511737">
        <ele>1784.3</ele>
        <time>2013-03-23T12:53:19Z</time>
      </trkpt>
      <trkpt lat="42.832569" lon="0.511856">
        <ele>1784.3</ele>
        <time>2013-03-23T12:53:30Z</time>
      </trkpt>
      <trkpt lat="42.832569" lon="0.511984">
        <ele>1784.8</ele>
        <time>2013-03-23T12:53:41Z</time>
      </trkpt>
      <trkpt lat="42.832572" lon="0.512114">
        <ele>1784.8</ele>
        <time>2013-03-23T12:53:51Z</time>
      </trkpt>
      <trkpt lat="42.832563" lon="0.512200">
        <ele>1785.8</ele>
        <time>2013-03-23T12:57:32Z</time>
      </trkpt>
      <trkpt lat="42.832564" lon="0.512245">
        <ele>1785.8</ele>
        <time>2013-03-23T12:59:00Z</time>
      </trkpt>
      <trkpt lat="42.832547" lon="0.512380">
        <ele>1786.3</ele>
        <time>2013-03-23T12:59:18Z</time>
      </trkpt>
      <trkpt lat="42.832576" lon="0.512494">
        <ele>1786.3</ele>
        <time>2013-03-23T12:59:28Z</time>
      </trkpt>
      <trkpt lat="42.832596" lon="0.512602">
        <ele>1785.3</ele>
        <time>2013-03-23T12:59:37Z</time>
      </trkpt>
      <trkpt lat="42.832612" lon="0.512719">
        <ele>1785.3</ele>
        <time>2013-03-23T12:59:46Z</time>
      </trkpt>
      <trkpt lat="42.832616" lon="0.512857">
        <ele>1785.3</ele>
        <time>2013-03-23T12:59:55Z</time>
      </trkpt>
      <trkpt lat="42.832613" lon="0.513003">
        <ele>1785.3</ele>
        <time>2013-03-23T13:00:05Z</time>
      </trkpt>
      <trkpt lat="42.832623" lon="0.513128">
        <ele>1785.8</ele>
        <time>2013-03-23T13:00:14Z</time>
      </trkpt>
      <trkpt lat="42.832614" lon="0.513246">
        <ele>1786.8</ele>
        <time>2013-03-23T13:00:23Z</time>
      </trkpt>
      <trkpt lat="42.832611" lon="0.513391">
        <ele>1787.7</ele>
        <time>2013-03-23T13:00:33Z</time>
      </trkpt>
      <trkpt lat="42.832605" lon="0.513518">
        <ele>1789.2</ele>
        <time>2013-03-23T13:00:44Z</time>
      </trkpt>
      <trkpt lat="42.832598" lon="0.513645">
        <ele>1790.1</ele>
        <time>2013-03-23T13:00:56Z</time>
      </trkpt>
      <trkpt lat="42.832603" lon="0.513772">
        <ele>1792.5</ele>
        <time>2013-03-23T13:01:09Z</time>
      </trkpt>
      <trkpt lat="42.832597" lon="0.513902">
        <ele>1793.5</ele>
        <time>2013-03-23T13:01:24Z</time>
      </trkpt>
      <trkpt lat="42.832591" lon="0.514023">
        <ele>1795.4</ele>
        <time>2013-03-23T13:01:39Z</time>
      </trkpt>
      <trkpt lat="42.832584" lon="0.514155">
        <ele>1797.8</ele>
        <time>2013-03-23T13:01:54Z</time>
      </trkpt>
      <trkpt lat="42.832598" lon="0.514274">
        <ele>1800.2</ele>
        <time>2013-03-23T13:02:09Z</time>
      </trkpt>
      <trkpt lat="42.832595" lon="0.514384">
        <ele>1802.1</ele>
        <time>2013-03-23T13:02:29Z</time>
      </trkpt>
      <trkpt lat="42.832595" lon="0.514503">
        <ele>1804.5</ele>
        <time>2013-03-23T13:02:54Z</time>
      </trkpt>
      <trkpt lat="42.832592" lon="0.514627">
        <ele>1806.9</ele>
        <time>2013-03-23T13:03:07Z</time>
      </trkpt>
      <trkpt lat="42.832589" lon="0.514749">
        <ele>1809.3</ele>
        <time>2013-03-23T13:03:20Z</time>
      </trkpt>
      <trkpt lat="42.832580" lon="0.514883">
        <ele>1811.7</ele>
        <time>2013-03-23T13:03:35Z</time>
      </trkpt>
      <trkpt lat="42.832568" lon="0.515001">
        <ele>1814.2</ele>
        <time>2013-03-23T13:03:49Z</time>
      </trkpt>
      <trkpt lat="42.832558" lon="0.515113">
        <ele>1816.1</ele>
        <time>2013-03-23T13:04:01Z</time>
      </trkpt>
      <trkpt lat="42.832549" lon="0.515207">
        <ele>1817.5</ele>
        <time>2013-03-23T13:04:19Z</time>
      </trkpt>
      <trkpt lat="42.832533" lon="0.515321">
        <ele>1819.9</ele>
        <time>2013-03-23T13:04:32Z</time>
      </trkpt>
      <trkpt lat="42.832527" lon="0.515427">
        <ele>1821.8</ele>
        <time>2013-03-23T13:04:46Z</time>
      </trkpt>
      <trkpt lat="42.832518" lon="0.515554">
        <ele>1822.8</ele>
        <time>2013-03-23T13:05:01Z</time>
      </trkpt>
      <trkpt lat="42.832500" lon="0.515658">
        <ele>1825.7</ele>
        <time>2013-03-23T13:05:15Z</time>
      </trkpt>
      <trkpt lat="42.832476" lon="0.515781">
        <ele>1827.1</ele>
        <time>2013-03-23T13:05:29Z</time>
      </trkpt>
      <trkpt lat="42.832473" lon="0.515908">
        <ele>1829.1</ele>
        <time>2013-03-23T13:06:05Z</time>
      </trkpt>
      <trkpt lat="42.832458" lon="0.516027">
        <ele>1830.0</ele>
        <time>2013-03-23T13:06:17Z</time>
      </trkpt>
      <trkpt lat="42.832434" lon="0.516147">
        <ele>1831.9</ele>
        <time>2013-03-23T13:06:28Z</time>
      </trkpt>
      <trkpt lat="42.832430" lon="0.516263">
        <ele>1833.4</ele>
        <time>2013-03-23T13:06:39Z</time>
      </trkpt>
      <trkpt lat="42.832416" lon="0.516373">
        <ele>1833.8</ele>
        <time>2013-03-23T13:06:50Z</time>
      </trkpt>
      <trkpt lat="42.832396" lon="0.516492">
        <ele>1835.8</ele>
        <time>2013-03-23T13:07:01Z</time>
      </trkpt>
      <trkpt lat="42.832385" lon="0.516607">
        <ele>1837.2</ele>
        <time>2013-03-23T13:07:13Z</time>
      </trkpt>
      <trkpt lat="42.832362" lon="0.516721">
        <ele>1838.7</ele>
        <time>2013-03-23T13:07:26Z</time>
      </trkpt>
      <trkpt lat="42.832347" lon="0.516844">
        <ele>1839.6</ele>
        <time>2013-03-23T13:07:39Z</time>
      </trkpt>
      <trkpt lat="42.832328" lon="0.516967">
        <ele>1840.6</ele>
        <time>2013-03-23T13:07:52Z</time>
      </trkpt>
      <trkpt lat="42.832313" lon="0.517085">
        <ele>1841.5</ele>
        <time>2013-03-23T13:08:05Z</time>
      </trkpt>
      <trkpt lat="42.832285" lon="0.517209">
        <ele>1843.5</ele>
        <time>2013-03-23T13:08:17Z</time>
      </trkpt>
      <trkpt lat="42.832268" lon="0.517333">
        <ele>1843.9</ele>
        <time>2013-03-23T13:08:29Z</time>
      </trkpt>
      <trkpt lat="42.832239" lon="0.517453">
        <ele>1844.9</ele>
        <time>2013-03-23T13:08:42Z</time>
      </trkpt>
      <trkpt lat="42.832204" lon="0.517538">
        <ele>1846.8</ele>
        <time>2013-03-23T13:12:01Z</time>
      </trkpt>
      <trkpt lat="42.832141" lon="0.517619">
        <ele>1846.3</ele>
        <time>2013-03-23T13:15:50Z</time>
      </trkpt>
      <trkpt lat="42.832089" lon="0.517717">
        <ele>1846.8</ele>
        <time>2013-03-23T13:16:02Z</time>
      </trkpt>
      <trkpt lat="42.832060" lon="0.517828">
        <ele>1847.8</ele>
        <time>2013-03-23T13:16:15Z</time>
      </trkpt>
      <trkpt lat="42.832047" lon="0.517934">
        <ele>1848.3</ele>
        <time>2013-03-23T13:16:37Z</time>
      </trkpt>
      <trkpt lat="42.832000" lon="0.518052">
        <ele>1848.3</ele>
        <time>2013-03-23T13:16:49Z</time>
      </trkpt>
      <trkpt lat="42.831948" lon="0.518166">
        <ele>1848.3</ele>
        <time>2013-03-23T13:17:01Z</time>
        <name>Coume de Herrere</name>
      </trkpt>
      <trkpt lat="42.831851" lon="0.518201">
        <ele>1847.8</ele>
        <time>2013-03-23T13:17:56Z</time>
      </trkpt>
      <trkpt lat="42.831860" lon="0.518219">
        <ele>1847.3</ele>
        <time>2013-03-23T13:19:18Z</time>
      </trkpt>
      <trkpt lat="42.831790" lon="0.518182">
        <ele>1845.9</ele>
        <time>2013-03-23T13:20:07Z</time>
      </trkpt>
      <trkpt lat="42.831689" lon="0.518155">
        <ele>1843.5</ele>
        <time>2013-03-23T13:20:36Z</time>
      </trkpt>
      <trkpt lat="42.831605" lon="0.518124">
        <ele>1840.6</ele>
        <time>2013-03-23T13:20:43Z</time>
      </trkpt>
      <trkpt lat="42.831511" lon="0.518104">
        <ele>1835.8</ele>
        <time>2013-03-23T13:20:50Z</time>
      </trkpt>
      <trkpt lat="42.831422" lon="0.518080">
        <ele>1832.4</ele>
        <time>2013-03-23T13:21:54Z</time>
      </trkpt>
      <trkpt lat="42.831318" lon="0.518050">
        <ele>1828.1</ele>
        <time>2013-03-23T13:22:01Z</time>
      </trkpt>
      <trkpt lat="42.831224" lon="0.518027">
        <ele>1824.2</ele>
        <time>2013-03-23T13:22:07Z</time>
      </trkpt>
      <trkpt lat="42.831135" lon="0.518007">
        <ele>1819.9</ele>
        <time>2013-03-23T13:22:13Z</time>
      </trkpt>
      <trkpt lat="42.831040" lon="0.517976">
        <ele>1816.6</ele>
        <time>2013-03-23T13:22:19Z</time>
      </trkpt>
      <trkpt lat="42.830950" lon="0.517943">
        <ele>1812.7</ele>
        <time>2013-03-23T13:22:26Z</time>
      </trkpt>
      <trkpt lat="42.830868" lon="0.517900">
        <ele>1809.8</ele>
        <time>2013-03-23T13:22:33Z</time>
      </trkpt>
      <trkpt lat="42.830782" lon="0.517866">
        <ele>1806.4</ele>
        <time>2013-03-23T13:22:40Z</time>
      </trkpt>
      <trkpt lat="42.830690" lon="0.517843">
        <ele>1804.5</ele>
        <time>2013-03-23T13:22:47Z</time>
      </trkpt>
      <trkpt lat="42.830602" lon="0.517801">
        <ele>1802.6</ele>
        <time>2013-03-23T13:22:54Z</time>
      </trkpt>
      <trkpt lat="42.830536" lon="0.517749">
        <ele>1801.2</ele>
        <time>2013-03-23T13:23:28Z</time>
      </trkpt>
      <trkpt lat="42.830434" lon="0.517732">
        <ele>1798.3</ele>
        <time>2013-03-23T13:23:36Z</time>
      </trkpt>
      <trkpt lat="42.830332" lon="0.517713">
        <ele>1796.4</ele>
        <time>2013-03-23T13:23:43Z</time>
      </trkpt>
      <trkpt lat="42.830237" lon="0.517683">
        <ele>1794.0</ele>
        <time>2013-03-23T13:23:50Z</time>
      </trkpt>
      <trkpt lat="42.830136" lon="0.517657">
        <ele>1791.1</ele>
        <time>2013-03-23T13:23:57Z</time>
      </trkpt>
      <trkpt lat="42.830044" lon="0.517639">
        <ele>1788.2</ele>
        <time>2013-03-23T13:24:03Z</time>
      </trkpt>
      <trkpt lat="42.829954" lon="0.517627">
        <ele>1786.3</ele>
        <time>2013-03-23T13:24:09Z</time>
      </trkpt>
      <trkpt lat="42.829855" lon="0.517615">
        <ele>1783.4</ele>
        <time>2013-03-23T13:24:16Z</time>
      </trkpt>
      <trkpt lat="42.829763" lon="0.517602">
        <ele>1781.5</ele>
        <time>2013-03-23T13:24:22Z</time>
      </trkpt>
      <trkpt lat="42.829669" lon="0.517598">
        <ele>1778.6</ele>
        <time>2013-03-23T13:24:28Z</time>
      </trkpt>
      <trkpt lat="42.829563" lon="0.517573">
        <ele>1775.7</ele>
        <time>2013-03-23T13:24:35Z</time>
      </trkpt>
      <trkpt lat="42.829474" lon="0.517567">
        <ele>1773.8</ele>
        <time>2013-03-23T13:24:41Z</time>
      </trkpt>
      <trkpt lat="42.829368" lon="0.517548">
        <ele>1771.8</ele>
        <time>2013-03-23T13:24:48Z</time>
      </trkpt>
      <trkpt lat="42.829261" lon="0.517543">
        <ele>1769.9</ele>
        <time>2013-03-23T13:24:55Z</time>
      </trkpt>
      <trkpt lat="42.829156" lon="0.517529">
        <ele>1768.5</ele>
        <time>2013-03-23T13:25:02Z</time>
      </trkpt>
      <trkpt lat="42.829043" lon="0.517513">
        <ele>1767.5</ele>
        <time>2013-03-23T13:25:09Z</time>
      </trkpt>
      <trkpt lat="42.828954" lon="0.517499">
        <ele>1765.6</ele>
        <time>2013-03-23T13:25:15Z</time>
      </trkpt>
      <trkpt lat="42.828857" lon="0.517496">
        <ele>1764.6</ele>
        <time>2013-03-23T13:25:22Z</time>
      </trkpt>
      <trkpt lat="42.828772" lon="0.517490">
        <ele>1763.7</ele>
        <time>2013-03-23T13:25:28Z</time>
      </trkpt>
      <trkpt lat="42.828669" lon="0.517502">
        <ele>1761.8</ele>
        <time>2013-03-23T13:25:35Z</time>
      </trkpt>
      <trkpt lat="42.828572" lon="0.517498">
        <ele>1760.8</ele>
        <time>2013-03-23T13:25:42Z</time>
      </trkpt>
      <trkpt lat="42.828480" lon="0.517498">
        <ele>1759.8</ele>
        <time>2013-03-23T13:25:48Z</time>
      </trkpt>
      <trkpt lat="42.828392" lon="0.517485">
        <ele>1758.4</ele>
        <time>2013-03-23T13:25:54Z</time>
      </trkpt>
      <trkpt lat="42.828293" lon="0.517501">
        <ele>1756.5</ele>
        <time>2013-03-23T13:26:01Z</time>
      </trkpt>
      <trkpt lat="42.828192" lon="0.517492">
        <ele>1755.0</ele>
        <time>2013-03-23T13:26:08Z</time>
      </trkpt>
      <trkpt lat="42.828098" lon="0.517500">
        <ele>1753.6</ele>
        <time>2013-03-23T13:26:15Z</time>
      </trkpt>
      <trkpt lat="42.828005" lon="0.517485">
        <ele>1751.7</ele>
        <time>2013-03-23T13:26:21Z</time>
      </trkpt>
      <trkpt lat="42.827907" lon="0.517503">
        <ele>1750.2</ele>
        <time>2013-03-23T13:26:28Z</time>
      </trkpt>
      <trkpt lat="42.827805" lon="0.517483">
        <ele>1748.8</ele>
        <time>2013-03-23T13:26:35Z</time>
      </trkpt>
      <trkpt lat="42.827701" lon="0.517500">
        <ele>1747.8</ele>
        <time>2013-03-23T13:26:42Z</time>
      </trkpt>
      <trkpt lat="42.827617" lon="0.517495">
        <ele>1746.8</ele>
        <time>2013-03-23T13:26:48Z</time>
      </trkpt>
      <trkpt lat="42.827515" lon="0.517514">
        <ele>1746.8</ele>
        <time>2013-03-23T13:26:56Z</time>
      </trkpt>
      <trkpt lat="42.827413" lon="0.517518">
        <ele>1746.8</ele>
        <time>2013-03-23T13:27:03Z</time>
      </trkpt>
      <trkpt lat="42.827320" lon="0.517520">
        <ele>1745.9</ele>
        <time>2013-03-23T13:27:10Z</time>
      </trkpt>
      <trkpt lat="42.827226" lon="0.517531">
        <ele>1745.4</ele>
        <time>2013-03-23T13:27:17Z</time>
      </trkpt>
      <trkpt lat="42.827134" lon="0.517554">
        <ele>1744.4</ele>
        <time>2013-03-23T13:27:24Z</time>
      </trkpt>
      <trkpt lat="42.827034" lon="0.517528">
        <ele>1743.5</ele>
        <time>2013-03-23T13:27:31Z</time>
      </trkpt>
      <trkpt lat="42.826878" lon="0.517585">
        <ele>1740.1</ele>
        <time>2013-03-23T13:30:40Z</time>
      </trkpt>
      <trkpt lat="42.826844" lon="0.517553">
        <ele>1742.5</ele>
        <time>2013-03-23T14:04:31Z</time>
      </trkpt>
      <trkpt lat="42.826795" lon="0.517522">
        <ele>1741.1</ele>
        <time>2013-03-23T14:05:51Z</time>
      </trkpt>
      <trkpt lat="42.826701" lon="0.517538">
        <ele>1739.6</ele>
        <time>2013-03-23T14:06:04Z</time>
      </trkpt>
      <trkpt lat="42.826614" lon="0.517517">
        <ele>1738.7</ele>
        <time>2013-03-23T14:06:15Z</time>
      </trkpt>
      <trkpt lat="42.826532" lon="0.517468">
        <ele>1736.8</ele>
        <time>2013-03-23T14:06:24Z</time>
      </trkpt>
      <trkpt lat="42.826444" lon="0.517424">
        <ele>1734.8</ele>
        <time>2013-03-23T14:06:33Z</time>
      </trkpt>
      <trkpt lat="42.826359" lon="0.517378">
        <ele>1733.9</ele>
        <time>2013-03-23T14:06:44Z</time>
      </trkpt>
      <trkpt lat="42.826274" lon="0.517350">
        <ele>1732.4</ele>
        <time>2013-03-23T14:06:54Z</time>
      </trkpt>
      <trkpt lat="42.826173" lon="0.517309">
        <ele>1730.0</ele>
        <time>2013-03-23T14:07:04Z</time>
      </trkpt>
      <trkpt lat="42.826081" lon="0.517286">
        <ele>1727.2</ele>
        <time>2013-03-23T14:07:14Z</time>
      </trkpt>
      <trkpt lat="42.825991" lon="0.517265">
        <ele>1725.2</ele>
        <time>2013-03-23T14:07:22Z</time>
      </trkpt>
      <trkpt lat="42.825897" lon="0.517236">
        <ele>1722.8</ele>
        <time>2013-03-23T14:07:32Z</time>
      </trkpt>
      <trkpt lat="42.825802" lon="0.517231">
        <ele>1721.4</ele>
        <time>2013-03-23T14:07:40Z</time>
      </trkpt>
      <trkpt lat="42.825709" lon="0.517199">
        <ele>1719.5</ele>
        <time>2013-03-23T14:07:48Z</time>
      </trkpt>
      <trkpt lat="42.825625" lon="0.517181">
        <ele>1717.5</ele>
        <time>2013-03-23T14:07:56Z</time>
      </trkpt>
      <trkpt lat="42.825540" lon="0.517158">
        <ele>1715.6</ele>
        <time>2013-03-23T14:08:04Z</time>
      </trkpt>
      <trkpt lat="42.825443" lon="0.517146">
        <ele>1712.7</ele>
        <time>2013-03-23T14:08:12Z</time>
      </trkpt>
      <trkpt lat="42.825369" lon="0.517147">
        <ele>1710.8</ele>
        <time>2013-03-23T14:08:36Z</time>
      </trkpt>
      <trkpt lat="42.825273" lon="0.517130">
        <ele>1707.4</ele>
        <time>2013-03-23T14:08:44Z</time>
      </trkpt>
      <trkpt lat="42.825188" lon="0.517123">
        <ele>1705.0</ele>
        <time>2013-03-23T14:08:51Z</time>
      </trkpt>
      <trkpt lat="42.825095" lon="0.517104">
        <ele>1702.2</ele>
        <time>2013-03-23T14:08:59Z</time>
      </trkpt>
      <trkpt lat="42.824999" lon="0.517081">
        <ele>1698.3</ele>
        <time>2013-03-23T14:09:08Z</time>
      </trkpt>
      <trkpt lat="42.824911" lon="0.517070">
        <ele>1695.9</ele>
        <time>2013-03-23T14:09:16Z</time>
      </trkpt>
      <trkpt lat="42.824813" lon="0.517057">
        <ele>1692.1</ele>
        <time>2013-03-23T14:09:23Z</time>
      </trkpt>
      <trkpt lat="42.824706" lon="0.517047">
        <ele>1686.8</ele>
        <time>2013-03-23T14:09:32Z</time>
      </trkpt>
      <trkpt lat="42.824610" lon="0.517029">
        <ele>1683.9</ele>
        <time>2013-03-23T14:09:39Z</time>
      </trkpt>
      <trkpt lat="42.824516" lon="0.517012">
        <ele>1680.0</ele>
        <time>2013-03-23T14:09:47Z</time>
      </trkpt>
      <trkpt lat="42.824437" lon="0.517013">
        <ele>1677.2</ele>
        <time>2013-03-23T14:10:08Z</time>
      </trkpt>
      <trkpt lat="42.824361" lon="0.517029">
        <ele>1674.3</ele>
        <time>2013-03-23T14:11:02Z</time>
      </trkpt>
      <trkpt lat="42.824261" lon="0.517018">
        <ele>1671.9</ele>
        <time>2013-03-23T14:11:09Z</time>
      </trkpt>
      <trkpt lat="42.824160" lon="0.516980">
        <ele>1670.4</ele>
        <time>2013-03-23T14:11:16Z</time>
      </trkpt>
      <trkpt lat="42.824070" lon="0.516961">
        <ele>1668.0</ele>
        <time>2013-03-23T14:11:23Z</time>
      </trkpt>
      <trkpt lat="42.823983" lon="0.516952">
        <ele>1664.7</ele>
        <time>2013-03-23T14:11:30Z</time>
      </trkpt>
      <trkpt lat="42.823882" lon="0.516956">
        <ele>1661.3</ele>
        <time>2013-03-23T14:12:19Z</time>
      </trkpt>
      <trkpt lat="42.823797" lon="0.516941">
        <ele>1657.4</ele>
        <time>2013-03-23T14:12:26Z</time>
      </trkpt>
      <trkpt lat="42.823699" lon="0.516956">
        <ele>1653.6</ele>
        <time>2013-03-23T14:12:35Z</time>
      </trkpt>
      <trkpt lat="42.823607" lon="0.516968">
        <ele>1652.2</ele>
        <time>2013-03-23T14:12:43Z</time>
      </trkpt>
      <trkpt lat="42.823510" lon="0.516982">
        <ele>1650.2</ele>
        <time>2013-03-23T14:12:52Z</time>
      </trkpt>
      <trkpt lat="42.823415" lon="0.516988">
        <ele>1649.3</ele>
        <time>2013-03-23T14:13:01Z</time>
      </trkpt>
      <trkpt lat="42.823319" lon="0.516993">
        <ele>1647.4</ele>
        <time>2013-03-23T14:13:10Z</time>
      </trkpt>
      <trkpt lat="42.823231" lon="0.517020">
        <ele>1645.4</ele>
        <time>2013-03-23T14:13:19Z</time>
      </trkpt>
      <trkpt lat="42.823139" lon="0.517045">
        <ele>1643.5</ele>
        <time>2013-03-23T14:13:28Z</time>
      </trkpt>
      <trkpt lat="42.823046" lon="0.517077">
        <ele>1641.6</ele>
        <time>2013-03-23T14:13:39Z</time>
      </trkpt>
      <trkpt lat="42.822954" lon="0.517099">
        <ele>1639.7</ele>
        <time>2013-03-23T14:13:49Z</time>
      </trkpt>
      <trkpt lat="42.822867" lon="0.517122">
        <ele>1639.2</ele>
        <time>2013-03-23T14:13:59Z</time>
      </trkpt>
      <trkpt lat="42.822787" lon="0.517143">
        <ele>1637.3</ele>
        <time>2013-03-23T14:14:17Z</time>
      </trkpt>
      <trkpt lat="42.822699" lon="0.517158">
        <ele>1635.3</ele>
        <time>2013-03-23T14:14:26Z</time>
      </trkpt>
      <trkpt lat="42.822608" lon="0.517184">
        <ele>1633.9</ele>
        <time>2013-03-23T14:14:35Z</time>
      </trkpt>
      <trkpt lat="42.822506" lon="0.517216">
        <ele>1632.5</ele>
        <time>2013-03-23T14:14:48Z</time>
      </trkpt>
      <trkpt lat="42.822408" lon="0.517261">
        <ele>1631.5</ele>
        <time>2013-03-23T14:15:01Z</time>
      </trkpt>
      <trkpt lat="42.822319" lon="0.517314">
        <ele>1631.5</ele>
        <time>2013-03-23T14:15:11Z</time>
      </trkpt>
      <trkpt lat="42.822236" lon="0.517360">
        <ele>1630.5</ele>
        <time>2013-03-23T14:15:21Z</time>
      </trkpt>
      <trkpt lat="42.822149" lon="0.517412">
        <ele>1629.6</ele>
        <time>2013-03-23T14:15:30Z</time>
      </trkpt>
      <trkpt lat="42.822044" lon="0.517437">
        <ele>1629.6</ele>
        <time>2013-03-23T14:15:40Z</time>
      </trkpt>
      <trkpt lat="42.821948" lon="0.517479">
        <ele>1629.6</ele>
        <time>2013-03-23T14:15:50Z</time>
      </trkpt>
      <trkpt lat="42.821847" lon="0.517465">
        <ele>1630.5</ele>
        <time>2013-03-23T14:16:00Z</time>
        <name>Homme de Pierre</name>
      </trkpt>
      <trkpt lat="42.821761" lon="0.517496">
        <ele>1633.4</ele>
        <time>2013-03-23T14:16:18Z</time>
      </trkpt>
      <trkpt lat="42.821750" lon="0.517530">
        <ele>1632.9</ele>
        <time>2013-03-23T14:18:11Z</time>
      </trkpt>
      <trkpt lat="42.821734" lon="0.517518">
        <ele>1631.5</ele>
        <time>2013-03-23T14:23:57Z</time>
      </trkpt>
      <trkpt lat="42.821660" lon="0.517540">
        <ele>1628.6</ele>
        <time>2013-03-23T14:24:10Z</time>
      </trkpt>
      <trkpt lat="42.821594" lon="0.517607">
        <ele>1627.2</ele>
        <time>2013-03-23T14:24:21Z</time>
      </trkpt>
      <trkpt lat="42.821539" lon="0.517703">
        <ele>1625.7</ele>
        <time>2013-03-23T14:24:33Z</time>
      </trkpt>
      <trkpt lat="42.821442" lon="0.517709">
        <ele>1623.3</ele>
        <time>2013-03-23T14:24:47Z</time>
      </trkpt>
      <trkpt lat="42.821354" lon="0.517706">
        <ele>1620.4</ele>
        <time>2013-03-23T14:24:57Z</time>
      </trkpt>
      <trkpt lat="42.821257" lon="0.517707">
        <ele>1619.5</ele>
        <time>2013-03-23T14:25:08Z</time>
      </trkpt>
      <trkpt lat="42.821156" lon="0.517723">
        <ele>1618.5</ele>
        <time>2013-03-23T14:25:20Z</time>
      </trkpt>
      <trkpt lat="42.821057" lon="0.517718">
        <ele>1616.6</ele>
        <time>2013-03-23T14:25:28Z</time>
      </trkpt>
      <trkpt lat="42.820969" lon="0.517709">
        <ele>1617.6</ele>
        <time>2013-03-23T14:25:36Z</time>
      </trkpt>
      <trkpt lat="42.820866" lon="0.517716">
        <ele>1618.0</ele>
        <time>2013-03-23T14:25:45Z</time>
      </trkpt>
      <trkpt lat="42.820773" lon="0.517725">
        <ele>1617.6</ele>
        <time>2013-03-23T14:25:54Z</time>
      </trkpt>
      <trkpt lat="42.820680" lon="0.517709">
        <ele>1615.2</ele>
        <time>2013-03-23T14:26:05Z</time>
      </trkpt>
      <trkpt lat="42.820583" lon="0.517685">
        <ele>1612.8</ele>
        <time>2013-03-23T14:26:16Z</time>
      </trkpt>
      <trkpt lat="42.820476" lon="0.517696">
        <ele>1610.3</ele>
        <time>2013-03-23T14:26:27Z</time>
      </trkpt>
      <trkpt lat="42.820387" lon="0.517737">
        <ele>1607.9</ele>
        <time>2013-03-23T14:26:39Z</time>
      </trkpt>
      <trkpt lat="42.820298" lon="0.517767">
        <ele>1605.1</ele>
        <time>2013-03-23T14:26:50Z</time>
      </trkpt>
      <trkpt lat="42.820207" lon="0.517773">
        <ele>1605.1</ele>
        <time>2013-03-23T14:27:02Z</time>
      </trkpt>
      <trkpt lat="42.820127" lon="0.517781">
        <ele>1603.6</ele>
        <time>2013-03-23T14:27:13Z</time>
      </trkpt>
      <trkpt lat="42.820037" lon="0.517797">
        <ele>1602.7</ele>
        <time>2013-03-23T14:27:24Z</time>
      </trkpt>
      <trkpt lat="42.819960" lon="0.517783">
        <ele>1602.2</ele>
        <time>2013-03-23T14:27:34Z</time>
      </trkpt>
      <trkpt lat="42.819870" lon="0.517789">
        <ele>1600.2</ele>
        <time>2013-03-23T14:27:43Z</time>
      </trkpt>
      <trkpt lat="42.819781" lon="0.517819">
        <ele>1598.8</ele>
        <time>2013-03-23T14:27:54Z</time>
      </trkpt>
      <trkpt lat="42.819706" lon="0.517754">
        <ele>1596.9</ele>
        <time>2013-03-23T14:28:02Z</time>
      </trkpt>
      <trkpt lat="42.819618" lon="0.517750">
        <ele>1595.0</ele>
        <time>2013-03-23T14:28:10Z</time>
      </trkpt>
      <trkpt lat="42.819512" lon="0.517742">
        <ele>1594.0</ele>
        <time>2013-03-23T14:28:20Z</time>
      </trkpt>
      <trkpt lat="42.819415" lon="0.517773">
        <ele>1591.6</ele>
        <time>2013-03-23T14:28:33Z</time>
      </trkpt>
      <trkpt lat="42.819312" lon="0.517791">
        <ele>1591.1</ele>
        <time>2013-03-23T14:28:45Z</time>
      </trkpt>
      <trkpt lat="42.819209" lon="0.517805">
        <ele>1590.6</ele>
        <time>2013-03-23T14:28:58Z</time>
      </trkpt>
      <trkpt lat="42.819118" lon="0.517780">
        <ele>1592.6</ele>
        <time>2013-03-23T14:29:09Z</time>
      </trkpt>
      <trkpt lat="42.819043" lon="0.517813">
        <ele>1594.0</ele>
        <time>2013-03-23T14:29:22Z</time>
      </trkpt>
      <trkpt lat="42.818999" lon="0.517841">
        <ele>1594.5</ele>
        <time>2013-03-23T14:30:38Z</time>
      </trkpt>
      <trkpt lat="42.818915" lon="0.517795">
        <ele>1592.1</ele>
        <time>2013-03-23T14:30:52Z</time>
      </trkpt>
      <trkpt lat="42.818858" lon="0.517710">
        <ele>1588.7</ele>
        <time>2013-03-23T14:31:03Z</time>
      </trkpt>
      <trkpt lat="42.818779" lon="0.517638">
        <ele>1584.4</ele>
        <time>2013-03-23T14:31:15Z</time>
      </trkpt>
      <trkpt lat="42.818729" lon="0.517552">
        <ele>1580.5</ele>
        <time>2013-03-23T14:31:25Z</time>
      </trkpt>
      <trkpt lat="42.818671" lon="0.517459">
        <ele>1576.7</ele>
        <time>2013-03-23T14:31:35Z</time>
      </trkpt>
      <trkpt lat="42.818597" lon="0.517390">
        <ele>1571.9</ele>
        <time>2013-03-23T14:31:47Z</time>
      </trkpt>
      <trkpt lat="42.818530" lon="0.517299">
        <ele>1569.0</ele>
        <time>2013-03-23T14:31:58Z</time>
      </trkpt>
      <trkpt lat="42.818441" lon="0.517266">
        <ele>1565.6</ele>
        <time>2013-03-23T14:32:08Z</time>
      </trkpt>
      <trkpt lat="42.818356" lon="0.517235">
        <ele>1563.7</ele>
        <time>2013-03-23T14:32:34Z</time>
      </trkpt>
      <trkpt lat="42.818260" lon="0.517205">
        <ele>1560.8</ele>
        <time>2013-03-23T14:32:44Z</time>
      </trkpt>
      <trkpt lat="42.818176" lon="0.517158">
        <ele>1557.9</ele>
        <time>2013-03-23T14:32:54Z</time>
      </trkpt>
      <trkpt lat="42.818095" lon="0.517099">
        <ele>1555.1</ele>
        <time>2013-03-23T14:33:04Z</time>
      </trkpt>
      <trkpt lat="42.818007" lon="0.517033">
        <ele>1551.7</ele>
        <time>2013-03-23T14:33:14Z</time>
      </trkpt>
      <trkpt lat="42.817943" lon="0.516944">
        <ele>1547.4</ele>
        <time>2013-03-23T14:33:25Z</time>
      </trkpt>
      <trkpt lat="42.817888" lon="0.516854">
        <ele>1545.0</ele>
        <time>2013-03-23T14:33:35Z</time>
      </trkpt>
      <trkpt lat="42.817847" lon="0.516742">
        <ele>1541.6</ele>
        <time>2013-03-23T14:33:46Z</time>
      </trkpt>
      <trkpt lat="42.817761" lon="0.516704">
        <ele>1538.2</ele>
        <time>2013-03-23T14:33:56Z</time>
      </trkpt>
      <trkpt lat="42.817668" lon="0.516662">
        <ele>1534.9</ele>
        <time>2013-03-23T14:34:06Z</time>
      </trkpt>
      <trkpt lat="42.817580" lon="0.516601">
        <ele>1531.0</ele>
        <time>2013-03-23T14:34:15Z</time>
      </trkpt>
      <trkpt lat="42.817486" lon="0.516612">
        <ele>1527.2</ele>
        <time>2013-03-23T14:34:25Z</time>
      </trkpt>
      <trkpt lat="42.817404" lon="0.516556">
        <ele>1524.8</ele>
        <time>2013-03-23T14:34:36Z</time>
      </trkpt>
      <trkpt lat="42.817322" lon="0.516557">
        <ele>1521.9</ele>
        <time>2013-03-23T14:35:00Z</time>
      </trkpt>
      <trkpt lat="42.817248" lon="0.516493">
        <ele>1519.0</ele>
        <time>2013-03-23T14:35:12Z</time>
      </trkpt>
      <trkpt lat="42.817173" lon="0.516416">
        <ele>1516.1</ele>
        <time>2013-03-23T14:35:25Z</time>
      </trkpt>
      <trkpt lat="42.817102" lon="0.516335">
        <ele>1513.2</ele>
        <time>2013-03-23T14:35:35Z</time>
      </trkpt>
      <trkpt lat="42.817024" lon="0.516277">
        <ele>1509.4</ele>
        <time>2013-03-23T14:35:46Z</time>
      </trkpt>
      <trkpt lat="42.816970" lon="0.516185">
        <ele>1505.6</ele>
        <time>2013-03-23T14:35:58Z</time>
      </trkpt>
      <trkpt lat="42.816898" lon="0.516124">
        <ele>1501.7</ele>
        <time>2013-03-23T14:36:24Z</time>
      </trkpt>
      <trkpt lat="42.816806" lon="0.516133">
        <ele>1498.8</ele>
        <time>2013-03-23T14:36:34Z</time>
      </trkpt>
      <trkpt lat="42.816724" lon="0.516096">
        <ele>1495.9</ele>
        <time>2013-03-23T14:36:48Z</time>
      </trkpt>
      <trkpt lat="42.816689" lon="0.515992">
        <ele>1493.6</ele>
        <time>2013-03-23T14:37:03Z</time>
      </trkpt>
      <trkpt lat="42.816674" lon="0.515874">
        <ele>1491.6</ele>
        <time>2013-03-23T14:37:14Z</time>
      </trkpt>
      <trkpt lat="42.816651" lon="0.515764">
        <ele>1488.3</ele>
        <time>2013-03-23T14:37:26Z</time>
      </trkpt>
      <trkpt lat="42.816646" lon="0.515642">
        <ele>1485.4</ele>
        <time>2013-03-23T14:37:47Z</time>
      </trkpt>
      <trkpt lat="42.816614" lon="0.515582">
        <ele>1482.0</ele>
        <time>2013-03-23T14:38:55Z</time>
      </trkpt>
      <trkpt lat="42.816589" lon="0.515476">
        <ele>1479.6</ele>
        <time>2013-03-23T14:39:04Z</time>
      </trkpt>
      <trkpt lat="42.816635" lon="0.515360">
        <ele>1478.2</ele>
        <time>2013-03-23T14:39:13Z</time>
      </trkpt>
      <trkpt lat="42.816643" lon="0.515235">
        <ele>1475.3</ele>
        <time>2013-03-23T14:39:23Z</time>
      </trkpt>
      <trkpt lat="42.816562" lon="0.515187">
        <ele>1472.9</ele>
        <time>2013-03-23T14:39:36Z</time>
      </trkpt>
      <trkpt lat="42.816473" lon="0.515184">
        <ele>1470.9</ele>
        <time>2013-03-23T14:39:45Z</time>
      </trkpt>
      <trkpt lat="42.816376" lon="0.515206">
        <ele>1469.5</ele>
        <time>2013-03-23T14:39:55Z</time>
      </trkpt>
      <trkpt lat="42.816282" lon="0.515209">
        <ele>1467.6</ele>
        <time>2013-03-23T14:40:04Z</time>
      </trkpt>
      <trkpt lat="42.816189" lon="0.515151">
        <ele>1463.7</ele>
        <time>2013-03-23T14:40:15Z</time>
      </trkpt>
      <trkpt lat="42.816113" lon="0.515118">
        <ele>1460.9</ele>
        <time>2013-03-23T14:40:27Z</time>
      </trkpt>
      <trkpt lat="42.816028" lon="0.515158">
        <ele>1459.4</ele>
        <time>2013-03-23T14:41:14Z</time>
      </trkpt>
      <trkpt lat="42.815965" lon="0.515083">
        <ele>1455.6</ele>
        <time>2013-03-23T14:41:26Z</time>
      </trkpt>
      <trkpt lat="42.815878" lon="0.515084">
        <ele>1452.7</ele>
        <time>2013-03-23T14:41:39Z</time>
      </trkpt>
      <trkpt lat="42.815806" lon="0.515062">
        <ele>1448.8</ele>
        <time>2013-03-23T14:41:51Z</time>
      </trkpt>
      <trkpt lat="42.815763" lon="0.514989">
        <ele>1446.9</ele>
        <time>2013-03-23T14:42:02Z</time>
      </trkpt>
      <trkpt lat="42.815760" lon="0.514861">
        <ele>1445.0</ele>
        <time>2013-03-23T14:42:13Z</time>
      </trkpt>
      <trkpt lat="42.815771" lon="0.514739">
        <ele>1442.1</ele>
        <time>2013-03-23T14:42:23Z</time>
      </trkpt>
      <trkpt lat="42.815777" lon="0.514623">
        <ele>1439.7</ele>
        <time>2013-03-23T14:42:32Z</time>
      </trkpt>
      <trkpt lat="42.815818" lon="0.514519">
        <ele>1437.3</ele>
        <time>2013-03-23T14:42:41Z</time>
      </trkpt>
      <trkpt lat="42.815857" lon="0.514398">
        <ele>1434.9</ele>
        <time>2013-03-23T14:42:50Z</time>
      </trkpt>
      <trkpt lat="42.815913" lon="0.514292">
        <ele>1433.0</ele>
        <time>2013-03-23T14:42:59Z</time>
      </trkpt>
      <trkpt lat="42.815959" lon="0.514174">
        <ele>1430.1</ele>
        <time>2013-03-23T14:43:09Z</time>
      </trkpt>
      <trkpt lat="42.816009" lon="0.514070">
        <ele>1426.7</ele>
        <time>2013-03-23T14:43:18Z</time>
      </trkpt>
      <trkpt lat="42.816065" lon="0.513960">
        <ele>1424.3</ele>
        <time>2013-03-23T14:43:28Z</time>
      </trkpt>
      <trkpt lat="42.816128" lon="0.513867">
        <ele>1420.5</ele>
        <time>2013-03-23T14:43:38Z</time>
      </trkpt>
      <trkpt lat="42.816186" lon="0.513790">
        <ele>1418.1</ele>
        <time>2013-03-23T14:43:50Z</time>
      </trkpt>
      <trkpt lat="42.816257" lon="0.513699">
        <ele>1415.7</ele>
        <time>2013-03-23T14:44:01Z</time>
      </trkpt>
      <trkpt lat="42.816308" lon="0.513570">
        <ele>1412.3</ele>
        <time>2013-03-23T14:44:13Z</time>
      </trkpt>
      <trkpt lat="42.816370" lon="0.513482">
        <ele>1408.9</ele>
        <time>2013-03-23T14:44:25Z</time>
      </trkpt>
      <trkpt lat="42.816435" lon="0.513390">
        <ele>1406.1</ele>
        <time>2013-03-23T14:44:36Z</time>
      </trkpt>
      <trkpt lat="42.816498" lon="0.513287">
        <ele>1403.2</ele>
        <time>2013-03-23T14:44:47Z</time>
      </trkpt>
      <trkpt lat="42.816567" lon="0.513200">
        <ele>1400.3</ele>
        <time>2013-03-23T14:44:58Z</time>
      </trkpt>
      <trkpt lat="42.816661" lon="0.513127">
        <ele>1397.9</ele>
        <time>2013-03-23T14:45:09Z</time>
      </trkpt>
      <trkpt lat="42.816741" lon="0.513051">
        <ele>1396.0</ele>
        <time>2013-03-23T14:45:20Z</time>
      </trkpt>
      <trkpt lat="42.816820" lon="0.512953">
        <ele>1392.6</ele>
        <time>2013-03-23T14:45:32Z</time>
      </trkpt>
      <trkpt lat="42.816867" lon="0.512860">
        <ele>1389.7</ele>
        <time>2013-03-23T14:45:43Z</time>
      </trkpt>
      <trkpt lat="42.816949" lon="0.512776">
        <ele>1386.8</ele>
        <time>2013-03-23T14:45:54Z</time>
      </trkpt>
      <trkpt lat="42.817018" lon="0.512681">
        <ele>1384.0</ele>
        <time>2013-03-23T14:46:05Z</time>
      </trkpt>
      <trkpt lat="42.817097" lon="0.512606">
        <ele>1381.1</ele>
        <time>2013-03-23T14:46:16Z</time>
      </trkpt>
      <trkpt lat="42.817179" lon="0.512552">
        <ele>1378.2</ele>
        <time>2013-03-23T14:46:28Z</time>
      </trkpt>
      <trkpt lat="42.817261" lon="0.512468">
        <ele>1374.8</ele>
        <time>2013-03-23T14:46:41Z</time>
      </trkpt>
      <trkpt lat="42.817361" lon="0.512449">
        <ele>1372.4</ele>
        <time>2013-03-23T14:46:54Z</time>
      </trkpt>
      <trkpt lat="42.817458" lon="0.512388">
        <ele>1368.6</ele>
        <time>2013-03-23T14:47:08Z</time>
      </trkpt>
      <trkpt lat="42.817565" lon="0.512300">
        <ele>1363.8</ele>
        <time>2013-03-23T14:47:24Z</time>
      </trkpt>
      <trkpt lat="42.817653" lon="0.512212">
        <ele>1360.4</ele>
        <time>2013-03-23T14:47:37Z</time>
      </trkpt>
      <trkpt lat="42.817725" lon="0.512105">
        <ele>1356.6</ele>
        <time>2013-03-23T14:47:49Z</time>
      </trkpt>
      <trkpt lat="42.817799" lon="0.511998">
        <ele>1352.7</ele>
        <time>2013-03-23T14:48:01Z</time>
      </trkpt>
      <trkpt lat="42.817879" lon="0.511861">
        <ele>1348.4</ele>
        <time>2013-03-23T14:48:14Z</time>
      </trkpt>
      <trkpt lat="42.817945" lon="0.511744">
        <ele>1344.5</ele>
        <time>2013-03-23T14:48:30Z</time>
      </trkpt>
      <trkpt lat="42.817987" lon="0.511609">
        <ele>1341.2</ele>
        <time>2013-03-23T14:48:43Z</time>
      </trkpt>
      <trkpt lat="42.818004" lon="0.511502">
        <ele>1337.3</ele>
        <time>2013-03-23T14:48:58Z</time>
      </trkpt>
      <trkpt lat="42.818081" lon="0.511390">
        <ele>1338.3</ele>
        <time>2013-03-23T14:51:37Z</time>
      </trkpt>
      <trkpt lat="42.818179" lon="0.511288">
        <ele>1334.0</ele>
        <time>2013-03-23T14:51:50Z</time>
      </trkpt>
      <trkpt lat="42.818298" lon="0.511155">
        <ele>1331.6</ele>
        <time>2013-03-23T14:52:06Z</time>
      </trkpt>
      <trkpt lat="42.818398" lon="0.511027">
        <ele>1329.6</ele>
        <time>2013-03-23T14:52:18Z</time>
      </trkpt>
      <trkpt lat="42.818486" lon="0.510875">
        <ele>1327.7</ele>
        <time>2013-03-23T14:52:33Z</time>
      </trkpt>
      <trkpt lat="42.818519" lon="0.510732">
        <ele>1327.2</ele>
        <time>2013-03-23T14:52:52Z</time>
      </trkpt>
      <trkpt lat="42.818588" lon="0.510614">
        <ele>1325.3</ele>
        <time>2013-03-23T14:53:04Z</time>
      </trkpt>
      <trkpt lat="42.818664" lon="0.510507">
        <ele>1323.4</ele>
        <time>2013-03-23T14:53:19Z</time>
      </trkpt>
      <trkpt lat="42.818751" lon="0.510372">
        <ele>1322.4</ele>
        <time>2013-03-23T14:54:00Z</time>
      </trkpt>
      <trkpt lat="42.818733" lon="0.510265">
        <ele>1321.0</ele>
        <time>2013-03-23T14:54:23Z</time>
      </trkpt>
      <trkpt lat="42.818826" lon="0.510067">
        <ele>1317.1</ele>
        <time>2013-03-23T14:54:43Z</time>
      </trkpt>
      <trkpt lat="42.818899" lon="0.509876">
        <ele>1314.7</ele>
        <time>2013-03-23T14:55:00Z</time>
      </trkpt>
      <trkpt lat="42.818964" lon="0.509728">
        <ele>1313.3</ele>
        <time>2013-03-23T14:55:17Z</time>
      </trkpt>
      <trkpt lat="42.819016" lon="0.509588">
        <ele>1312.8</ele>
        <time>2013-03-23T14:55:51Z</time>
      </trkpt>
      <trkpt lat="42.818947" lon="0.509406">
        <ele>1311.9</ele>
        <time>2013-03-23T14:56:53Z</time>
      </trkpt>
      <trkpt lat="42.818901" lon="0.509270">
        <ele>1312.3</ele>
        <time>2013-03-23T14:58:35Z</time>
      </trkpt>
      <trkpt lat="42.818852" lon="0.509145">
        <ele>1310.9</ele>
        <time>2013-03-23T14:58:47Z</time>
      </trkpt>
      <trkpt lat="42.818833" lon="0.509008">
        <ele>1309.9</ele>
        <time>2013-03-23T14:58:58Z</time>
      </trkpt>
      <trkpt lat="42.818835" lon="0.509089">
        <ele>1310.4</ele>
        <time>2013-03-23T14:59:27Z</time>
      </trkpt>
      <trkpt lat="42.818838" lon="0.509010">
        <ele>1310.9</ele>
        <time>2013-03-23T15:00:04Z</time>
      </trkpt>
      <trkpt lat="42.818795" lon="0.508875">
        <ele>1309.9</ele>
        <time>2013-03-23T15:00:18Z</time>
      </trkpt>
      <trkpt lat="42.818721" lon="0.508801">
        <ele>1308.5</ele>
        <time>2013-03-23T15:00:30Z</time>
      </trkpt>
      <trkpt lat="42.818618" lon="0.508734">
        <ele>1304.2</ele>
        <time>2013-03-23T15:01:00Z</time>
      </trkpt>
      <trkpt lat="42.818521" lon="0.508707">
        <ele>1303.2</ele>
        <time>2013-03-23T15:01:09Z</time>
      </trkpt>
      <trkpt lat="42.818430" lon="0.508592">
        <ele>1305.6</ele>
        <time>2013-03-23T15:01:25Z</time>
        <name>Labach</name>
      </trkpt>
      <trkpt lat="42.818407" lon="0.508436">
        <ele>1308.5</ele>
        <time>2013-03-23T15:01:43Z</time>
      </trkpt>
      <trkpt lat="42.818394" lon="0.508259">
        <ele>1311.4</ele>
        <time>2013-03-23T15:02:03Z</time>
      </trkpt>
      <trkpt lat="42.818357" lon="0.508056">
        <ele>1315.7</ele>
        <time>2013-03-23T15:02:27Z</time>
      </trkpt>
      <trkpt lat="42.818343" lon="0.507869">
        <ele>1319.6</ele>
        <time>2013-03-23T15:02:49Z</time>
      </trkpt>
      <trkpt lat="42.818313" lon="0.507699">
        <ele>1322.4</ele>
        <time>2013-03-23T15:03:12Z</time>
      </trkpt>
      <trkpt lat="42.818299" lon="0.507533">
        <ele>1326.3</ele>
        <time>2013-03-23T15:03:34Z</time>
      </trkpt>
      <trkpt lat="42.818295" lon="0.507358">
        <ele>1328.7</ele>
        <time>2013-03-23T15:03:52Z</time>
      </trkpt>
      <trkpt lat="42.818317" lon="0.507235">
        <ele>1331.1</ele>
        <time>2013-03-23T15:04:06Z</time>
      </trkpt>
      <trkpt lat="42.818316" lon="0.507108">
        <ele>1334.0</ele>
        <time>2013-03-23T15:04:21Z</time>
      </trkpt>
      <trkpt lat="42.818304" lon="0.506976">
        <ele>1337.8</ele>
        <time>2013-03-23T15:04:39Z</time>
      </trkpt>
      <trkpt lat="42.818281" lon="0.506848">
        <ele>1339.7</ele>
        <time>2013-03-23T15:04:54Z</time>
      </trkpt>
      <trkpt lat="42.818217" lon="0.506732">
        <ele>1342.6</ele>
        <time>2013-03-23T15:05:12Z</time>
      </trkpt>
      <trkpt lat="42.818141" lon="0.506633">
        <ele>1345.0</ele>
        <time>2013-03-23T15:05:28Z</time>
      </trkpt>
      <trkpt lat="42.818055" lon="0.506530">
        <ele>1346.9</ele>
        <time>2013-03-23T15:05:47Z</time>
      </trkpt>
      <trkpt lat="42.817938" lon="0.506438">
        <ele>1348.9</ele>
        <time>2013-03-23T15:06:05Z</time>
      </trkpt>
      <trkpt lat="42.817847" lon="0.506339">
        <ele>1350.8</ele>
        <time>2013-03-23T15:06:22Z</time>
      </trkpt>
      <trkpt lat="42.817752" lon="0.506221">
        <ele>1352.2</ele>
        <time>2013-03-23T15:06:40Z</time>
      </trkpt>
      <trkpt lat="42.817664" lon="0.506122">
        <ele>1352.2</ele>
        <time>2013-03-23T15:06:53Z</time>
      </trkpt>
      <trkpt lat="42.817589" lon="0.506027">
        <ele>1354.2</ele>
        <time>2013-03-23T15:07:07Z</time>
      </trkpt>
      <trkpt lat="42.817506" lon="0.505876">
        <ele>1355.6</ele>
        <time>2013-03-23T15:07:23Z</time>
      </trkpt>
      <trkpt lat="42.817405" lon="0.505825">
        <ele>1356.6</ele>
        <time>2013-03-23T15:07:35Z</time>
      </trkpt>
      <trkpt lat="42.817308" lon="0.505808">
        <ele>1356.6</ele>
        <time>2013-03-23T15:07:46Z</time>
      </trkpt>
      <trkpt lat="42.817221" lon="0.505813">
        <ele>1356.6</ele>
        <time>2013-03-23T15:07:56Z</time>
      </trkpt>
      <trkpt lat="42.817122" lon="0.505811">
        <ele>1357.0</ele>
        <time>2013-03-23T15:08:06Z</time>
      </trkpt>
      <trkpt lat="42.817029" lon="0.505802">
        <ele>1357.0</ele>
        <time>2013-03-23T15:08:15Z</time>
      </trkpt>
      <trkpt lat="42.816949" lon="0.505793">
        <ele>1357.0</ele>
        <time>2013-03-23T15:08:24Z</time>
      </trkpt>
      <trkpt lat="42.816841" lon="0.505798">
        <ele>1356.6</ele>
        <time>2013-03-23T15:08:34Z</time>
      </trkpt>
      <trkpt lat="42.816765" lon="0.505801">
        <ele>1355.6</ele>
        <time>2013-03-23T15:11:57Z</time>
      </trkpt>
      <trkpt lat="42.816655" lon="0.505797">
        <ele>1355.6</ele>
        <time>2013-03-23T15:12:06Z</time>
      </trkpt>
      <trkpt lat="42.816552" lon="0.505796">
        <ele>1355.6</ele>
        <time>2013-03-23T15:12:15Z</time>
      </trkpt>
      <trkpt lat="42.816443" lon="0.505778">
        <ele>1356.1</ele>
        <time>2013-03-23T15:12:24Z</time>
      </trkpt>
      <trkpt lat="42.816344" lon="0.505770">
        <ele>1355.1</ele>
        <time>2013-03-23T15:12:33Z</time>
      </trkpt>
      <trkpt lat="42.816250" lon="0.505772">
        <ele>1355.1</ele>
        <time>2013-03-23T15:12:41Z</time>
      </trkpt>
      <trkpt lat="42.816151" lon="0.505763">
        <ele>1354.6</ele>
        <time>2013-03-23T15:12:49Z</time>
      </trkpt>
      <trkpt lat="42.816061" lon="0.505754">
        <ele>1354.2</ele>
        <time>2013-03-23T15:12:57Z</time>
      </trkpt>
      <trkpt lat="42.815957" lon="0.505743">
        <ele>1353.7</ele>
        <time>2013-03-23T15:13:06Z</time>
      </trkpt>
      <trkpt lat="42.815854" lon="0.505726">
        <ele>1352.7</ele>
        <time>2013-03-23T15:13:14Z</time>
      </trkpt>
      <trkpt lat="42.815759" lon="0.505706">
        <ele>1353.2</ele>
        <time>2013-03-23T15:13:22Z</time>
      </trkpt>
      <trkpt lat="42.815657" lon="0.505680">
        <ele>1352.7</ele>
        <time>2013-03-23T15:13:30Z</time>
      </trkpt>
      <trkpt lat="42.815552" lon="0.505660">
        <ele>1352.2</ele>
        <time>2013-03-23T15:13:38Z</time>
      </trkpt>
      <trkpt lat="42.815458" lon="0.505635">
        <ele>1351.8</ele>
        <time>2013-03-23T15:13:46Z</time>
      </trkpt>
      <trkpt lat="42.815358" lon="0.505608">
        <ele>1351.3</ele>
        <time>2013-03-23T15:13:54Z</time>
      </trkpt>
      <trkpt lat="42.815260" lon="0.505570">
        <ele>1350.8</ele>
        <time>2013-03-23T15:14:02Z</time>
      </trkpt>
      <trkpt lat="42.815168" lon="0.505518">
        <ele>1350.3</ele>
        <time>2013-03-23T15:14:10Z</time>
      </trkpt>
      <trkpt lat="42.815069" lon="0.505479">
        <ele>1348.9</ele>
        <time>2013-03-23T15:14:18Z</time>
      </trkpt>
      <trkpt lat="42.814967" lon="0.505451">
        <ele>1348.4</ele>
        <time>2013-03-23T15:14:26Z</time>
      </trkpt>
      <trkpt lat="42.814865" lon="0.505397">
        <ele>1348.4</ele>
        <time>2013-03-23T15:14:34Z</time>
      </trkpt>
      <trkpt lat="42.814777" lon="0.505342">
        <ele>1348.4</ele>
        <time>2013-03-23T15:14:42Z</time>
      </trkpt>
      <trkpt lat="42.814686" lon="0.505277">
        <ele>1347.9</ele>
        <time>2013-03-23T15:14:51Z</time>
      </trkpt>
      <trkpt lat="42.814596" lon="0.505215">
        <ele>1348.4</ele>
        <time>2013-03-23T15:14:59Z</time>
      </trkpt>
      <trkpt lat="42.814495" lon="0.505167">
        <ele>1347.9</ele>
        <time>2013-03-23T15:15:07Z</time>
      </trkpt>
      <trkpt lat="42.814396" lon="0.505121">
        <ele>1347.9</ele>
        <time>2013-03-23T15:15:15Z</time>
      </trkpt>
      <trkpt lat="42.814306" lon="0.505081">
        <ele>1347.9</ele>
        <time>2013-03-23T15:15:23Z</time>
      </trkpt>
      <trkpt lat="42.814210" lon="0.505033">
        <ele>1347.4</ele>
        <time>2013-03-23T15:15:32Z</time>
      </trkpt>
      <trkpt lat="42.814114" lon="0.504982">
        <ele>1347.4</ele>
        <time>2013-03-23T15:15:41Z</time>
      </trkpt>
      <trkpt lat="42.814018" lon="0.504927">
        <ele>1346.9</ele>
        <time>2013-03-23T15:15:49Z</time>
      </trkpt>
      <trkpt lat="42.813924" lon="0.504887">
        <ele>1346.5</ele>
        <time>2013-03-23T15:15:56Z</time>
      </trkpt>
      <trkpt lat="42.813842" lon="0.504821">
        <ele>1346.0</ele>
        <time>2013-03-23T15:16:04Z</time>
      </trkpt>
      <trkpt lat="42.813783" lon="0.504724">
        <ele>1346.0</ele>
        <time>2013-03-23T15:16:12Z</time>
      </trkpt>
      <trkpt lat="42.813730" lon="0.504607">
        <ele>1346.0</ele>
        <time>2013-03-23T15:16:20Z</time>
      </trkpt>
      <trkpt lat="42.813684" lon="0.504490">
        <ele>1345.0</ele>
        <time>2013-03-23T15:16:30Z</time>
      </trkpt>
      <trkpt lat="42.813663" lon="0.504357">
        <ele>1344.5</ele>
        <time>2013-03-23T15:16:39Z</time>
      </trkpt>
      <trkpt lat="42.813626" lon="0.504229">
        <ele>1344.1</ele>
        <time>2013-03-23T15:16:48Z</time>
      </trkpt>
      <trkpt lat="42.813593" lon="0.504103">
        <ele>1344.1</ele>
        <time>2013-03-23T15:16:56Z</time>
      </trkpt>
      <trkpt lat="42.813543" lon="0.503979">
        <ele>1343.1</ele>
        <time>2013-03-23T15:17:04Z</time>
      </trkpt>
      <trkpt lat="42.813514" lon="0.503850">
        <ele>1343.1</ele>
        <time>2013-03-23T15:17:12Z</time>
      </trkpt>
      <trkpt lat="42.813482" lon="0.503711">
        <ele>1342.6</ele>
        <time>2013-03-23T15:17:21Z</time>
      </trkpt>
      <trkpt lat="42.813465" lon="0.503564">
        <ele>1342.1</ele>
        <time>2013-03-23T15:17:30Z</time>
      </trkpt>
      <trkpt lat="42.813445" lon="0.503421">
        <ele>1342.6</ele>
        <time>2013-03-23T15:17:39Z</time>
      </trkpt>
      <trkpt lat="42.813464" lon="0.503283">
        <ele>1342.6</ele>
        <time>2013-03-23T15:17:49Z</time>
      </trkpt>
      <trkpt lat="42.813478" lon="0.503150">
        <ele>1343.6</ele>
        <time>2013-03-23T15:17:59Z</time>
      </trkpt>
      <trkpt lat="42.813491" lon="0.503028">
        <ele>1344.5</ele>
        <time>2013-03-23T15:18:08Z</time>
      </trkpt>
      <trkpt lat="42.813505" lon="0.502898">
        <ele>1344.5</ele>
        <time>2013-03-23T15:18:18Z</time>
      </trkpt>
      <trkpt lat="42.813539" lon="0.502768">
        <ele>1346.9</ele>
        <time>2013-03-23T15:18:28Z</time>
      </trkpt>
      <trkpt lat="42.813572" lon="0.502639">
        <ele>1348.4</ele>
        <time>2013-03-23T15:18:38Z</time>
      </trkpt>
      <trkpt lat="42.813621" lon="0.502513">
        <ele>1350.3</ele>
        <time>2013-03-23T15:18:49Z</time>
      </trkpt>
      <trkpt lat="42.813662" lon="0.502387">
        <ele>1352.2</ele>
        <time>2013-03-23T15:18:59Z</time>
      </trkpt>
      <trkpt lat="42.813711" lon="0.502271">
        <ele>1354.2</ele>
        <time>2013-03-23T15:19:10Z</time>
      </trkpt>
      <trkpt lat="42.813763" lon="0.502156">
        <ele>1356.1</ele>
        <time>2013-03-23T15:19:21Z</time>
      </trkpt>
      <trkpt lat="42.813807" lon="0.502039">
        <ele>1357.5</ele>
        <time>2013-03-23T15:19:32Z</time>
      </trkpt>
      <trkpt lat="42.813861" lon="0.501943">
        <ele>1359.0</ele>
        <time>2013-03-23T15:19:42Z</time>
      </trkpt>
      <trkpt lat="42.813920" lon="0.501834">
        <ele>1359.9</ele>
        <time>2013-03-23T15:19:52Z</time>
      </trkpt>
      <trkpt lat="42.813984" lon="0.501743">
        <ele>1360.9</ele>
        <time>2013-03-23T15:20:01Z</time>
      </trkpt>
      <trkpt lat="42.814063" lon="0.501665">
        <ele>1362.8</ele>
        <time>2013-03-23T15:20:11Z</time>
      </trkpt>
      <trkpt lat="42.814138" lon="0.501597">
        <ele>1363.8</ele>
        <time>2013-03-23T15:20:20Z</time>
      </trkpt>
      <trkpt lat="42.814222" lon="0.501533">
        <ele>1365.2</ele>
        <time>2013-03-23T15:20:30Z</time>
      </trkpt>
      <trkpt lat="42.814337" lon="0.501473">
        <ele>1365.7</ele>
        <time>2013-03-23T15:20:40Z</time>
      </trkpt>
      <trkpt lat="42.814411" lon="0.501412">
        <ele>1366.2</ele>
        <time>2013-03-23T15:20:50Z</time>
      </trkpt>
      <trkpt lat="42.814475" lon="0.501346">
        <ele>1367.1</ele>
        <time>2013-03-23T15:21:00Z</time>
      </trkpt>
      <trkpt lat="42.814560" lon="0.501292">
        <ele>1368.1</ele>
        <time>2013-03-23T15:21:09Z</time>
      </trkpt>
      <trkpt lat="42.814635" lon="0.501260">
        <ele>1369.5</ele>
        <time>2013-03-23T15:21:19Z</time>
      </trkpt>
      <trkpt lat="42.814736" lon="0.501223">
        <ele>1370.0</ele>
        <time>2013-03-23T15:21:27Z</time>
      </trkpt>
      <trkpt lat="42.814825" lon="0.501183">
        <ele>1369.5</ele>
        <time>2013-03-23T15:21:36Z</time>
      </trkpt>
      <trkpt lat="42.814909" lon="0.501117">
        <ele>1369.1</ele>
        <time>2013-03-23T15:21:46Z</time>
      </trkpt>
      <trkpt lat="42.814993" lon="0.501067">
        <ele>1369.1</ele>
        <time>2013-03-23T15:21:54Z</time>
      </trkpt>
      <trkpt lat="42.815081" lon="0.500996">
        <ele>1368.6</ele>
        <time>2013-03-23T15:22:02Z</time>
      </trkpt>
      <trkpt lat="42.815169" lon="0.500934">
        <ele>1368.6</ele>
        <time>2013-03-23T15:22:11Z</time>
      </trkpt>
      <trkpt lat="42.815253" lon="0.500863">
        <ele>1368.6</ele>
        <time>2013-03-23T15:22:20Z</time>
      </trkpt>
      <trkpt lat="42.815340" lon="0.500805">
        <ele>1368.1</ele>
        <time>2013-03-23T15:22:29Z</time>
      </trkpt>
      <trkpt lat="42.815435" lon="0.500734">
        <ele>1368.1</ele>
        <time>2013-03-23T15:22:38Z</time>
      </trkpt>
      <trkpt lat="42.815526" lon="0.500667">
        <ele>1369.1</ele>
        <time>2013-03-23T15:22:48Z</time>
      </trkpt>
      <trkpt lat="42.815618" lon="0.500629">
        <ele>1369.5</ele>
        <time>2013-03-23T15:22:58Z</time>
      </trkpt>
      <trkpt lat="42.815717" lon="0.500608">
        <ele>1371.9</ele>
        <time>2013-03-23T15:23:11Z</time>
      </trkpt>
      <trkpt lat="42.815811" lon="0.500575">
        <ele>1374.3</ele>
        <time>2013-03-23T15:23:23Z</time>
      </trkpt>
      <trkpt lat="42.815916" lon="0.500491">
        <ele>1374.3</ele>
        <time>2013-03-23T15:23:35Z</time>
      </trkpt>
      <trkpt lat="42.815978" lon="0.500370">
        <ele>1372.9</ele>
        <time>2013-03-23T15:23:48Z</time>
      </trkpt>
      <trkpt lat="42.816066" lon="0.500265">
        <ele>1372.9</ele>
        <time>2013-03-23T15:24:00Z</time>
      </trkpt>
      <trkpt lat="42.816145" lon="0.500193">
        <ele>1372.4</ele>
        <time>2013-03-23T15:24:10Z</time>
      </trkpt>
      <trkpt lat="42.816240" lon="0.500116">
        <ele>1371.9</ele>
        <time>2013-03-23T15:24:24Z</time>
      </trkpt>
      <trkpt lat="42.816369" lon="0.500060">
        <ele>1371.9</ele>
        <time>2013-03-23T15:24:37Z</time>
      </trkpt>
      <trkpt lat="42.816451" lon="0.499971">
        <ele>1372.4</ele>
        <time>2013-03-23T15:24:47Z</time>
      </trkpt>
      <trkpt lat="42.816513" lon="0.499845">
        <ele>1371.5</ele>
        <time>2013-03-23T15:24:57Z</time>
      </trkpt>
      <trkpt lat="42.816598" lon="0.499754">
        <ele>1371.0</ele>
        <time>2013-03-23T15:25:07Z</time>
      </trkpt>
      <trkpt lat="42.816661" lon="0.499656">
        <ele>1370.0</ele>
        <time>2013-03-23T15:25:16Z</time>
      </trkpt>
      <trkpt lat="42.816732" lon="0.499552">
        <ele>1369.5</ele>
        <time>2013-03-23T15:25:26Z</time>
      </trkpt>
      <trkpt lat="42.816775" lon="0.499413">
        <ele>1368.1</ele>
        <time>2013-03-23T15:25:37Z</time>
      </trkpt>
      <trkpt lat="42.816795" lon="0.499253">
        <ele>1364.7</ele>
        <time>2013-03-23T15:25:49Z</time>
      </trkpt>
      <trkpt lat="42.816827" lon="0.499101">
        <ele>1362.3</ele>
        <time>2013-03-23T15:26:00Z</time>
      </trkpt>
      <trkpt lat="42.816866" lon="0.498933">
        <ele>1360.4</ele>
        <time>2013-03-23T15:26:10Z</time>
      </trkpt>
      <trkpt lat="42.816884" lon="0.498799">
        <ele>1359.0</ele>
        <time>2013-03-23T15:26:21Z</time>
      </trkpt>
      <trkpt lat="42.816888" lon="0.498653">
        <ele>1356.6</ele>
        <time>2013-03-23T15:26:32Z</time>
      </trkpt>
      <trkpt lat="42.816906" lon="0.498446">
        <ele>1353.7</ele>
        <time>2013-03-23T15:26:49Z</time>
      </trkpt>
      <trkpt lat="42.816892" lon="0.498289">
        <ele>1351.3</ele>
        <time>2013-03-23T15:27:02Z</time>
      </trkpt>
      <trkpt lat="42.816891" lon="0.498138">
        <ele>1351.3</ele>
        <time>2013-03-23T15:27:16Z</time>
      </trkpt>
      <trkpt lat="42.816852" lon="0.498003">
        <ele>1352.2</ele>
        <time>2013-03-23T15:27:31Z</time>
      </trkpt>
      <trkpt lat="42.816698" lon="0.497979">
        <ele>1350.8</ele>
        <time>2013-03-23T15:27:44Z</time>
      </trkpt>
      <trkpt lat="42.816566" lon="0.497976">
        <ele>1348.9</ele>
        <time>2013-03-23T15:27:58Z</time>
      </trkpt>
      <trkpt lat="42.816446" lon="0.497956">
        <ele>1346.5</ele>
        <time>2013-03-23T15:28:12Z</time>
      </trkpt>
      <trkpt lat="42.816325" lon="0.498016">
        <ele>1343.1</ele>
        <time>2013-03-23T15:28:27Z</time>
      </trkpt>
      <trkpt lat="42.816205" lon="0.498074">
        <ele>1340.2</ele>
        <time>2013-03-23T15:28:40Z</time>
      </trkpt>
      <trkpt lat="42.816089" lon="0.498101">
        <ele>1337.3</ele>
        <time>2013-03-23T15:28:52Z</time>
      </trkpt>
      <trkpt lat="42.815984" lon="0.498148">
        <ele>1334.4</ele>
        <time>2013-03-23T15:29:04Z</time>
      </trkpt>
      <trkpt lat="42.815852" lon="0.498176">
        <ele>1330.6</ele>
        <time>2013-03-23T15:29:17Z</time>
      </trkpt>
      <trkpt lat="42.815715" lon="0.498207">
        <ele>1327.2</ele>
        <time>2013-03-23T15:29:31Z</time>
      </trkpt>
      <trkpt lat="42.815583" lon="0.498246">
        <ele>1322.9</ele>
        <time>2013-03-23T15:29:44Z</time>
      </trkpt>
      <trkpt lat="42.815444" lon="0.498248">
        <ele>1320.0</ele>
        <time>2013-03-23T15:29:55Z</time>
      </trkpt>
      <trkpt lat="42.815330" lon="0.498267">
        <ele>1318.1</ele>
        <time>2013-03-23T15:30:07Z</time>
      </trkpt>
      <trkpt lat="42.815222" lon="0.498282">
        <ele>1315.2</ele>
        <time>2013-03-23T15:30:16Z</time>
      </trkpt>
      <trkpt lat="42.815105" lon="0.498247">
        <ele>1312.8</ele>
        <time>2013-03-23T15:30:27Z</time>
      </trkpt>
      <trkpt lat="42.814993" lon="0.498240">
        <ele>1310.4</ele>
        <time>2013-03-23T15:30:38Z</time>
      </trkpt>
      <trkpt lat="42.814888" lon="0.498235">
        <ele>1309.0</ele>
        <time>2013-03-23T15:30:49Z</time>
      </trkpt>
      <trkpt lat="42.814773" lon="0.498159">
        <ele>1306.6</ele>
        <time>2013-03-23T15:31:03Z</time>
      </trkpt>
      <trkpt lat="42.814636" lon="0.498119">
        <ele>1303.7</ele>
        <time>2013-03-23T15:31:15Z</time>
      </trkpt>
      <trkpt lat="42.814506" lon="0.498154">
        <ele>1300.3</ele>
        <time>2013-03-23T15:31:28Z</time>
      </trkpt>
      <trkpt lat="42.814389" lon="0.498146">
        <ele>1297.4</ele>
        <time>2013-03-23T15:31:38Z</time>
      </trkpt>
      <trkpt lat="42.814321" lon="0.498094">
        <ele>1296.0</ele>
        <time>2013-03-23T15:32:10Z</time>
      </trkpt>
      <trkpt lat="42.814176" lon="0.498036">
        <ele>1294.1</ele>
        <time>2013-03-23T15:32:31Z</time>
      </trkpt>
      <trkpt lat="42.814099" lon="0.497985">
        <ele>1292.6</ele>
        <time>2013-03-23T15:32:41Z</time>
      </trkpt>
      <trkpt lat="42.813993" lon="0.497923">
        <ele>1288.8</ele>
        <time>2013-03-23T15:32:53Z</time>
      </trkpt>
      <trkpt lat="42.813906" lon="0.497837">
        <ele>1287.8</ele>
        <time>2013-03-23T15:33:03Z</time>
      </trkpt>
      <trkpt lat="42.813826" lon="0.497782">
        <ele>1286.4</ele>
        <time>2013-03-23T15:33:16Z</time>
      </trkpt>
      <trkpt lat="42.813749" lon="0.497686">
        <ele>1284.5</ele>
        <time>2013-03-23T15:33:27Z</time>
      </trkpt>
      <trkpt lat="42.813681" lon="0.497634">
        <ele>1283.0</ele>
        <time>2013-03-23T15:33:54Z</time>
      </trkpt>
      <trkpt lat="42.813566" lon="0.497607">
        <ele>1281.6</ele>
        <time>2013-03-23T15:34:06Z</time>
      </trkpt>
      <trkpt lat="42.813498" lon="0.497593">
        <ele>1279.7</ele>
        <time>2013-03-23T15:34:17Z</time>
      </trkpt>
      <trkpt lat="42.813445" lon="0.497416">
        <ele>1277.7</ele>
        <time>2013-03-23T15:34:33Z</time>
      </trkpt>
      <trkpt lat="42.813362" lon="0.497447">
        <ele>1274.8</ele>
        <time>2013-03-23T15:34:46Z</time>
      </trkpt>
      <trkpt lat="42.813234" lon="0.497512">
        <ele>1272.4</ele>
        <time>2013-03-23T15:34:58Z</time>
      </trkpt>
      <trkpt lat="42.813139" lon="0.497517">
        <ele>1270.0</ele>
        <time>2013-03-23T15:35:07Z</time>
      </trkpt>
      <trkpt lat="42.813164" lon="0.497634">
        <ele>1294.6</ele>
        <time>2013-03-23T15:35:24Z</time>
      </trkpt>
      <trkpt lat="42.813076" lon="0.497735">
        <ele>1290.2</ele>
        <time>2013-03-23T15:35:35Z</time>
      </trkpt>
      <trkpt lat="42.812985" lon="0.497808">
        <ele>1286.6</ele>
        <time>2013-03-23T15:35:45Z</time>
      </trkpt>
      <trkpt lat="42.812990" lon="0.497953">
        <ele>1285.3</ele>
        <time>2013-03-23T15:36:17Z</time>
      </trkpt>
      <trkpt lat="42.812916" lon="0.498029">
        <ele>1282.6</ele>
        <time>2013-03-23T15:36:25Z</time>
      </trkpt>
      <trkpt lat="42.812772" lon="0.498029">
        <ele>1279.1</ele>
        <time>2013-03-23T15:36:35Z</time>
      </trkpt>
      <trkpt lat="42.812687" lon="0.497993">
        <ele>1277.0</ele>
        <time>2013-03-23T15:36:48Z</time>
      </trkpt>
      <trkpt lat="42.812639" lon="0.497870">
        <ele>1275.9</ele>
        <time>2013-03-23T15:36:59Z</time>
      </trkpt>
      <trkpt lat="42.812619" lon="0.497801">
        <ele>1275.4</ele>
        <time>2013-03-23T15:37:10Z</time>
      </trkpt>
      <trkpt lat="42.812608" lon="0.497765">
        <ele>1275.0</ele>
        <time>2013-03-23T15:39:27Z</time>
      </trkpt>
      <trkpt lat="42.812590" lon="0.497729">
        <ele>1274.5</ele>
        <time>2013-03-23T15:39:40Z</time>
      </trkpt>
      <trkpt lat="42.812573" lon="0.497696">
        <ele>1274.0</ele>
        <time>2013-03-23T15:39:52Z</time>
      </trkpt>
    </trkseg>
  </trk>
</gpx>

